Time,TemperatureF,DewpointF,PressureIn,WindDirection,WindDirectionDegrees,WindSpeedMPH,WindSpeedGustMPH,Humidity,HourlyPrecipIn,Conditions,Clouds,dailyrainin,SoftwareType,DateUTC
2013-01-22 00:00:00,37.2,31.0,30.03,ESE,112,0.0,2.5,78,0.00,,,0.00,WUHU21623XXSP,2013-01-22 08:00:00,
2013-01-22 00:01:00,37.2,31.0,30.03,ESE,112,0.0,2.5,78,0.00,,,0.00,WUHU21623XXSP,2013-01-22 08:01:00,
2013-01-22 00:02:00,37.2,31.0,30.03,ESE,112,0.0,2.5,78,0.00,,,0.00,WUHU21623XXSP,2013-01-22 08:02:00,
2013-01-22 00:05:00,37.2,31.0,30.03,ESE,112,0.0,1.3,78,0.00,,,0.00,WUHU21623XXSP,2013-01-22 08:05:00,
2013-01-22 00:06:00,37.2,31.0,30.03,ESE,112,0.0,1.3,78,0.00,,,0.00,WUHU21623XXSP,2013-01-22 08:06:00,
2013-01-22 00:07:00,37.2,31.0,30.03,ESE,112,0.0,1.3,78,0.00,,,0.00,WUHU21623XXSP,2013-01-22 08:07:00,
2013-01-22 00:10:00,37.0,30.8,30.03,ESE,112,0.0,1.3,78,0.00,,,0.00,WUHU21623XXSP,2013-01-22 08:10:00,
2013-01-22 00:11:00,37.0,30.8,30.03,ESE,112,0.0,1.3,78,0.00,,,0.00,WUHU21623XXSP,2013-01-22 08:11:00,
2013-01-22 00:12:00,37.0,30.8,30.03,ESE,112,0.0,1.1,78,0.00,,,0.00,WUHU21623XXSP,2013-01-22 08:12:00,
2013-01-22 00:15:00,37.0,31.1,30.02,ESE,112,0.0,0.7,79,0.00,,,0.00,WUHU21623XXSP,2013-01-22 08:15:00,
2013-01-22 00:16:00,37.0,31.1,30.03,ESE,112,0.0,0.7,79,0.00,,,0.00,WUHU21623XXSP,2013-01-22 08:16:00,
2013-01-22 00:17:00,37.0,31.1,30.03,ESE,112,0.0,0.7,79,0.00,,,0.00,WUHU21623XXSP,2013-01-22 08:17:00,
2013-01-22 00:20:00,37.2,31.3,30.03,ESE,112,1.1,2.2,79,0.00,,,0.00,WUHU21623XXSP,2013-01-22 08:20:00,
2013-01-22 00:21:00,37.2,31.3,30.03,ESE,112,2.2,2.2,79,0.00,,,0.00,WUHU21623XXSP,2013-01-22 08:21:00,
2013-01-22 00:22:00,37.2,31.3,30.03,ESE,112,2.2,2.2,79,0.00,,,0.00,WUHU21623XXSP,2013-01-22 08:22:00,
2013-01-22 00:25:00,37.2,31.3,30.03,ESE,112,2.0,2.2,79,0.00,,,0.00,WUHU21623XXSP,2013-01-22 08:25:00,
2013-01-22 00:27:00,37.2,31.3,30.03,ESE,112,2.0,2.2,79,0.00,,,0.00,WUHU21623XXSP,2013-01-22 08:27:00,
2013-01-22 00:31:00,37.2,31.3,30.03,ESE,112,0.0,2.2,79,0.00,,,0.00,WUHU21623XXSP,2013-01-22 08:31:00,
2013-01-22 00:32:00,37.2,31.3,30.03,ESE,112,0.0,2.0,79,0.00,,,0.00,WUHU21623XXSP,2013-01-22 08:32:00,
2013-01-22 00:36:00,37.2,31.3,30.03,ESE,112,0.0,2.0,79,0.00,,,0.00,WUHU21623XXSP,2013-01-22 08:36:00,
2013-01-22 00:37:00,37.2,31.3,30.03,SSE,157,0.0,1.3,79,0.00,,,0.00,WUHU21623XXSP,2013-01-22 08:37:00,
2013-01-22 00:41:00,37.2,31.3,30.03,NNE,22,0.0,1.6,79,0.00,,,0.00,WUHU21623XXSP,2013-01-22 08:41:00,
2013-01-22 00:42:00,37.2,31.3,30.03,North,0,0.0,1.6,79,0.00,,,0.00,WUHU21623XXSP,2013-01-22 08:42:00,
2013-01-22 00:46:00,37.2,31.3,30.03,SSW,202,0.0,1.8,79,0.00,,,0.00,WUHU21623XXSP,2013-01-22 08:46:00,
2013-01-22 00:47:00,37.2,31.3,30.03,SSW,202,0.0,1.8,79,0.00,,,0.00,WUHU21623XXSP,2013-01-22 08:47:00,
2013-01-22 00:48:00,37.2,31.3,30.03,SSW,202,0.0,1.8,79,0.00,,,0.00,WUHU21623XXSP,2013-01-22 08:48:00,
2013-01-22 00:51:00,37.2,31.0,30.03,South,180,0.0,1.8,78,0.00,,,0.00,WUHU21623XXSP,2013-01-22 08:51:00,
2013-01-22 00:52:00,37.2,31.0,30.03,SSW,202,0.0,1.8,78,0.00,,,0.00,WUHU21623XXSP,2013-01-22 08:52:00,
2013-01-22 00:53:00,37.2,31.0,30.03,SSW,202,1.1,1.8,78,0.00,,,0.00,WUHU21623XXSP,2013-01-22 08:53:00,
2013-01-22 00:56:00,37.2,31.0,30.03,SSW,202,0.0,1.3,78,0.00,,,0.00,WUHU21623XXSP,2013-01-22 08:56:00,
2013-01-22 00:57:00,37.2,31.0,30.02,SSW,202,0.9,1.3,78,0.00,,,0.00,WUHU21623XXSP,2013-01-22 08:57:00,
2013-01-22 00:58:00,37.2,31.0,30.02,SSE,157,0.0,1.3,78,0.00,,,0.00,WUHU21623XXSP,2013-01-22 08:58:00,
2013-01-22 01:01:00,37.2,31.0,30.02,SSW,202,1.8,1.8,78,0.00,,,0.00,WUHU21623XXSP,2013-01-22 09:01:00,
2013-01-22 01:02:00,37.2,31.0,30.02,SSW,202,0.0,1.8,78,0.00,,,0.00,WUHU21623XXSP,2013-01-22 09:02:00,
2013-01-22 01:03:00,37.2,31.0,30.02,South,180,2.2,2.2,78,0.00,,,0.00,WUHU21623XXSP,2013-01-22 09:03:00,
2013-01-22 01:06:00,37.2,31.0,30.02,SE,135,0.0,2.5,78,0.00,,,0.00,WUHU21623XXSP,2013-01-22 09:06:00,
2013-01-22 01:07:00,37.2,31.0,30.01,SE,135,0.0,2.5,78,0.00,,,0.00,WUHU21623XXSP,2013-01-22 09:07:00,
2013-01-22 01:08:00,37.2,31.0,30.01,SE,135,0.0,2.5,78,0.00,,,0.00,WUHU21623XXSP,2013-01-22 09:08:00,
2013-01-22 01:12:00,37.2,31.0,30.02,SSW,202,0.0,2.5,78,0.00,,,0.00,WUHU21623XXSP,2013-01-22 09:12:00,
2013-01-22 01:13:00,37.2,31.0,30.02,South,180,4.9,4.9,78,0.00,,,0.00,WUHU21623XXSP,2013-01-22 09:13:00,
2013-01-22 01:17:00,37.4,31.2,30.02,SSW,202,0.0,4.9,78,0.00,,,0.00,WUHU21623XXSP,2013-01-22 09:17:00,
2013-01-22 01:18:00,37.6,31.3,30.02,ESE,112,0.0,4.9,78,0.00,,,0.00,WUHU21623XXSP,2013-01-22 09:18:00,
2013-01-22 01:22:00,37.6,31.3,30.02,SW,225,0.0,4.9,78,0.00,,,0.00,WUHU21623XXSP,2013-01-22 09:22:00,
2013-01-22 01:23:00,37.6,31.3,30.02,SSW,202,2.2,2.7,78,0.00,,,0.00,WUHU21623XXSP,2013-01-22 09:23:00,
2013-01-22 01:27:00,37.6,31.3,30.02,SSW,202,1.8,2.2,78,0.00,,,0.00,WUHU21623XXSP,2013-01-22 09:27:00,
2013-01-22 01:28:00,37.6,31.3,30.02,SSW,202,0.0,2.2,78,0.00,,,0.00,WUHU21623XXSP,2013-01-22 09:28:00,
2013-01-22 01:29:00,37.6,31.3,30.02,South,180,0.0,2.2,78,0.00,,,0.00,WUHU21623XXSP,2013-01-22 09:29:00,
2013-01-22 01:32:00,37.8,31.5,30.02,SSW,202,2.9,2.9,78,0.00,,,0.00,WUHU21623XXSP,2013-01-22 09:32:00,
2013-01-22 01:33:00,37.8,31.5,30.02,SSW,202,0.0,2.9,78,0.00,,,0.00,WUHU21623XXSP,2013-01-22 09:33:00,
2013-01-22 01:34:00,37.8,31.5,30.02,South,180,0.7,2.9,78,0.00,,,0.00,WUHU21623XXSP,2013-01-22 09:34:00,
2013-01-22 01:37:00,37.8,31.5,30.01,South,180,0.0,2.9,78,0.00,,,0.00,WUHU21623XXSP,2013-01-22 09:37:00,
2013-01-22 01:38:00,37.8,31.5,30.01,SE,135,0.0,2.9,78,0.00,,,0.00,WUHU21623XXSP,2013-01-22 09:38:00,
2013-01-22 01:39:00,37.8,31.5,30.01,SSE,157,0.0,2.9,78,0.00,,,0.00,WUHU21623XXSP,2013-01-22 09:39:00,
2013-01-22 01:42:00,37.8,31.5,30.01,SE,135,0.0,1.3,78,0.00,,,0.00,WUHU21623XXSP,2013-01-22 09:42:00,
2013-01-22 01:43:00,37.6,31.3,30.01,SE,135,0.0,1.3,78,0.00,,,0.00,WUHU21623XXSP,2013-01-22 09:43:00,
2013-01-22 01:44:00,37.6,31.3,30.01,SSE,157,1.6,1.6,78,0.00,,,0.00,WUHU21623XXSP,2013-01-22 09:44:00,
2013-01-22 01:45:00,37.6,31.3,30.01,SSE,157,0.9,1.6,78,0.00,,,0.00,WUHU21623XXSP,2013-01-22 09:45:00,
2013-01-22 01:47:00,37.6,31.3,30.01,SE,135,0.9,5.6,78,0.00,,,0.00,WUHU21623XXSP,2013-01-22 09:47:00,
2013-01-22 01:48:00,37.6,31.3,30.01,South,180,0.0,5.6,78,0.00,,,0.00,WUHU21623XXSP,2013-01-22 09:48:00,
2013-01-22 01:49:00,37.6,31.3,30.01,WNW,292,0.0,5.6,78,0.00,,,0.00,WUHU21623XXSP,2013-01-22 09:49:00,
2013-01-22 01:50:00,37.8,31.5,30.01,WSW,247,0.0,5.6,78,0.00,,,0.00,WUHU21623XXSP,2013-01-22 09:50:00,
2013-01-22 01:53:00,37.8,31.5,30.01,South,180,0.0,5.6,78,0.00,,,0.00,WUHU21623XXSP,2013-01-22 09:53:00,
2013-01-22 01:54:00,37.8,31.5,30.01,NE,45,0.2,5.6,78,0.00,,,0.00,WUHU21623XXSP,2013-01-22 09:54:00,
2013-01-22 01:55:00,37.8,31.5,30.01,SW,225,0.0,5.6,78,0.00,,,0.00,WUHU21623XXSP,2013-01-22 09:55:00,
2013-01-22 01:58:00,37.8,31.5,30.01,SE,135,3.1,3.8,78,0.00,,,0.00,WUHU21623XXSP,2013-01-22 09:58:00,
2013-01-22 01:59:00,37.9,31.7,30.01,SSE,157,0.0,3.8,78,0.00,,,0.00,WUHU21623XXSP,2013-01-22 09:59:00,
2013-01-22 02:00:00,37.9,31.7,30.01,SSW,202,0.0,3.8,78,0.00,,,0.00,WUHU21623XXSP,2013-01-22 10:00:00,
2013-01-22 02:03:00,37.9,31.7,30.01,SE,135,1.1,5.6,78,0.00,,,0.00,WUHU21623XXSP,2013-01-22 10:03:00,
2013-01-22 02:05:00,37.9,31.7,30.01,SE,135,0.0,5.6,78,0.00,,,0.00,WUHU21623XXSP,2013-01-22 10:05:00,
2013-01-22 02:08:00,38.1,31.9,30.01,ESE,112,0.0,5.6,78,0.00,,,0.00,WUHU21623XXSP,2013-01-22 10:08:00,
2013-01-22 02:10:00,38.1,31.9,30.01,ESE,112,0.0,5.6,78,0.00,,,0.00,WUHU21623XXSP,2013-01-22 10:10:00,
2013-01-22 02:13:00,38.1,31.5,30.01,ESE,112,0.0,5.8,77,0.00,,,0.00,WUHU21623XXSP,2013-01-22 10:13:00,
2013-01-22 02:15:00,38.1,31.5,30.00,SE,135,0.0,5.8,77,0.00,,,0.00,WUHU21623XXSP,2013-01-22 10:15:00,
2013-01-22 02:18:00,38.1,31.5,30.00,SSE,157,0.0,7.8,77,0.00,,,0.00,WUHU21623XXSP,2013-01-22 10:18:00,
2013-01-22 02:19:00,38.1,31.5,30.00,SE,135,0.0,7.8,77,0.00,,,0.00,WUHU21623XXSP,2013-01-22 10:19:00,
2013-01-22 02:20:00,38.1,31.5,30.00,SSE,157,0.0,7.8,77,0.00,,,0.00,WUHU21623XXSP,2013-01-22 10:20:00,
2013-01-22 02:23:00,38.1,31.5,30.01,ENE,67,0.0,7.8,77,0.00,,,0.00,WUHU21623XXSP,2013-01-22 10:23:00,
2013-01-22 02:24:00,38.1,31.5,30.00,ENE,67,0.0,7.8,77,0.00,,,0.00,WUHU21623XXSP,2013-01-22 10:24:00,
2013-01-22 02:25:00,38.1,31.5,30.00,East,90,0.0,7.8,77,0.00,,,0.00,WUHU21623XXSP,2013-01-22 10:25:00,
2013-01-22 02:28:00,38.1,31.5,30.00,East,90,1.8,6.7,77,0.00,,,0.00,WUHU21623XXSP,2013-01-22 10:28:00,
2013-01-22 02:29:00,38.1,31.5,30.00,East,90,0.0,6.7,77,0.00,,,0.00,WUHU21623XXSP,2013-01-22 10:29:00,
2013-01-22 02:30:00,38.3,31.7,30.00,South,180,0.0,6.7,77,0.00,,,0.00,WUHU21623XXSP,2013-01-22 10:30:00,
2013-01-22 02:31:00,38.3,31.7,30.00,South,180,0.0,6.7,77,0.00,,,0.00,WUHU21623XXSP,2013-01-22 10:31:00,
2013-01-22 02:34:00,38.3,31.7,30.00,South,180,2.9,5.4,77,0.00,,,0.00,WUHU21623XXSP,2013-01-22 10:34:00,
2013-01-22 02:36:00,38.3,31.7,30.00,WSW,247,0.0,5.4,77,0.00,,,0.00,WUHU21623XXSP,2013-01-22 10:36:00,
2013-01-22 02:39:00,38.5,31.9,30.00,ESE,112,0.0,4.7,77,0.00,,,0.00,WUHU21623XXSP,2013-01-22 10:39:00,
2013-01-22 02:41:00,38.5,31.9,30.00,North,0,1.8,8.1,77,0.00,,,0.00,WUHU21623XXSP,2013-01-22 10:41:00,
2013-01-22 02:44:00,38.5,31.9,30.00,SE,135,0.0,8.1,77,0.00,,,0.00,WUHU21623XXSP,2013-01-22 10:44:00,
2013-01-22 02:46:00,38.5,31.9,30.00,ENE,67,0.0,8.1,77,0.00,,,0.00,WUHU21623XXSP,2013-01-22 10:46:00,
2013-01-22 02:49:00,38.7,32.1,30.00,NNE,22,0.0,8.1,77,0.00,,,0.00,WUHU21623XXSP,2013-01-22 10:49:00,
2013-01-22 02:51:00,38.7,32.1,30.00,NNE,22,0.0,5.8,77,0.00,,,0.00,WUHU21623XXSP,2013-01-22 10:51:00,
2013-01-22 02:54:00,38.8,32.2,30.00,SSE,157,1.6,3.8,77,0.00,,,0.00,WUHU21623XXSP,2013-01-22 10:54:00,
2013-01-22 02:56:00,38.7,32.1,30.00,SE,135,0.0,3.8,77,0.00,,,0.00,WUHU21623XXSP,2013-01-22 10:56:00,
2013-01-22 02:59:00,38.8,32.2,29.99,ESE,112,0.0,3.4,77,0.00,,,0.00,WUHU21623XXSP,2013-01-22 10:59:00,
2013-01-22 03:01:00,38.8,32.2,29.99,ESE,112,4.3,4.3,77,0.00,,,0.00,WUHU21623XXSP,2013-01-22 11:01:00,
2013-01-22 03:04:00,38.8,32.2,29.99,SE,135,0.0,4.3,77,0.00,,,0.00,WUHU21623XXSP,2013-01-22 11:04:00,
2013-01-22 03:06:00,38.8,32.2,29.99,North,0,1.8,4.3,77,0.00,,,0.00,WUHU21623XXSP,2013-01-22 11:06:00,
2013-01-22 03:09:00,38.8,31.9,29.99,SE,135,5.4,5.4,76,0.00,,,0.00,WUHU21623XXSP,2013-01-22 11:09:00,
2013-01-22 03:11:00,38.8,31.9,29.99,SSE,157,0.0,5.4,76,0.00,,,0.00,WUHU21623XXSP,2013-01-22 11:11:00,
2013-01-22 03:14:00,38.8,31.9,29.99,South,180,2.5,5.4,76,0.00,,,0.00,WUHU21623XXSP,2013-01-22 11:14:00,
2013-01-22 03:15:00,38.8,31.9,30.00,ESE,112,0.0,5.4,76,0.00,,,0.00,WUHU21623XXSP,2013-01-22 11:15:00,
2013-01-22 03:17:00,38.8,31.9,29.99,SSE,157,0.0,5.4,76,0.00,,,0.00,WUHU21623XXSP,2013-01-22 11:17:00,
2013-01-22 03:19:00,38.8,31.9,29.99,East,90,0.0,4.5,76,0.00,,,0.00,WUHU21623XXSP,2013-01-22 11:19:00,
2013-01-22 03:20:00,39.0,32.1,29.99,SE,135,1.6,4.5,76,0.00,,,0.00,WUHU21623XXSP,2013-01-22 11:20:00,
2013-01-22 03:22:00,38.8,31.9,29.99,SE,135,0.0,4.5,76,0.00,,,0.00,WUHU21623XXSP,2013-01-22 11:22:00,
2013-01-22 03:25:00,39.0,32.1,29.99,SSE,157,0.0,4.5,76,0.00,,,0.00,WUHU21623XXSP,2013-01-22 11:25:00,
2013-01-22 03:27:00,38.8,31.9,29.99,SSE,157,0.0,5.4,76,0.00,,,0.00,WUHU21623XXSP,2013-01-22 11:27:00,
2013-01-22 03:30:00,39.0,32.1,29.99,ESE,112,1.3,5.4,76,0.00,,,0.00,WUHU21623XXSP,2013-01-22 11:30:00,
2013-01-22 03:32:00,39.0,32.1,29.99,SE,135,0.0,5.4,76,0.00,,,0.00,WUHU21623XXSP,2013-01-22 11:32:00,
2013-01-22 03:35:00,39.0,32.1,29.99,SSE,157,0.0,5.4,76,0.00,,,0.00,WUHU21623XXSP,2013-01-22 11:35:00,
2013-01-22 03:36:00,39.0,32.1,29.99,SE,135,0.0,5.4,76,0.00,,,0.00,WUHU21623XXSP,2013-01-22 11:36:00,
2013-01-22 03:37:00,39.0,32.1,29.99,ESE,112,0.0,3.8,76,0.00,,,0.00,WUHU21623XXSP,2013-01-22 11:37:00,
2013-01-22 03:38:00,39.0,32.1,29.99,ESE,112,0.0,3.8,76,0.00,,,0.00,WUHU21623XXSP,2013-01-22 11:38:00,
2013-01-22 03:40:00,39.0,32.1,29.99,SE,135,1.6,3.8,76,0.00,,,0.00,WUHU21623XXSP,2013-01-22 11:40:00,
2013-01-22 03:41:00,39.0,32.1,29.99,ESE,112,1.1,3.8,76,0.00,,,0.00,WUHU21623XXSP,2013-01-22 11:41:00,
2013-01-22 03:43:00,39.0,32.1,29.99,SSE,157,0.0,3.8,76,0.00,,,0.00,WUHU21623XXSP,2013-01-22 11:43:00,
2013-01-22 03:45:00,39.0,32.1,29.99,SE,135,3.1,3.1,76,0.00,,,0.00,WUHU21623XXSP,2013-01-22 11:45:00,
2013-01-22 03:47:00,39.0,32.1,29.98,ESE,112,0.0,3.1,76,0.00,,,0.00,WUHU21623XXSP,2013-01-22 11:47:00,
2013-01-22 03:48:00,39.0,32.1,29.99,ESE,112,0.0,3.1,76,0.00,,,0.00,WUHU21623XXSP,2013-01-22 11:48:00,
2013-01-22 03:51:00,38.8,31.9,29.98,South,180,0.0,3.1,76,0.00,,,0.00,WUHU21623XXSP,2013-01-22 11:51:00,
2013-01-22 03:52:00,38.8,31.9,29.98,South,180,0.0,3.1,76,0.00,,,0.00,WUHU21623XXSP,2013-01-22 11:52:00,
2013-01-22 03:53:00,38.8,31.9,29.98,ESE,112,0.0,3.1,76,0.00,,,0.00,WUHU21623XXSP,2013-01-22 11:53:00,
2013-01-22 03:56:00,38.8,31.9,29.98,SSE,157,0.0,2.7,76,0.00,,,0.00,WUHU21623XXSP,2013-01-22 11:56:00,
2013-01-22 03:57:00,38.8,31.9,29.98,South,180,0.0,2.7,76,0.00,,,0.00,WUHU21623XXSP,2013-01-22 11:57:00,
2013-01-22 03:58:00,38.8,31.9,29.98,SE,135,0.0,2.7,76,0.00,,,0.00,WUHU21623XXSP,2013-01-22 11:58:00,
2013-01-22 04:01:00,38.8,31.9,29.98,South,180,1.6,1.6,76,0.00,,,0.00,WUHU21623XXSP,2013-01-22 12:01:00,
2013-01-22 04:03:00,38.8,31.9,29.98,SSE,157,0.0,1.6,76,0.00,,,0.00,WUHU21623XXSP,2013-01-22 12:03:00,
2013-01-22 04:07:00,38.7,31.4,29.98,SSW,202,0.0,2.2,75,0.00,,,0.00,WUHU21623XXSP,2013-01-22 12:07:00,
2013-01-22 04:08:00,38.7,31.4,29.98,South,180,3.1,3.1,75,0.00,,,0.00,WUHU21623XXSP,2013-01-22 12:08:00,
2013-01-22 04:09:00,38.8,31.9,29.98,West,270,0.0,3.1,76,0.00,,,0.00,WUHU21623XXSP,2013-01-22 12:09:00,
2013-01-22 04:12:00,38.5,31.2,29.98,SW,225,0.0,3.1,75,0.00,,,0.00,WUHU21623XXSP,2013-01-22 12:12:00,
2013-01-22 04:13:00,38.5,31.2,29.98,SW,225,0.0,3.1,75,0.00,,,0.00,WUHU21623XXSP,2013-01-22 12:13:00,
2013-01-22 04:14:00,38.5,31.2,29.98,SW,225,0.0,3.1,75,0.00,,,0.00,WUHU21623XXSP,2013-01-22 12:14:00,
2013-01-22 04:17:00,38.3,31.0,29.98,SW,225,1.1,3.1,75,0.00,,,0.00,WUHU21623XXSP,2013-01-22 12:17:00,
2013-01-22 04:18:00,38.3,31.0,29.98,SW,225,0.0,1.8,75,0.00,,,0.00,WUHU21623XXSP,2013-01-22 12:18:00,
2013-01-22 04:19:00,38.3,31.0,29.98,SSW,202,0.0,1.8,75,0.00,,,0.00,WUHU21623XXSP,2013-01-22 12:19:00,
2013-01-22 04:22:00,38.1,30.9,29.99,SSW,202,0.0,1.1,75,0.00,,,0.00,WUHU21623XXSP,2013-01-22 12:22:00,
2013-01-22 04:23:00,38.1,30.9,29.99,SSW,202,0.0,1.1,75,0.00,,,0.00,WUHU21623XXSP,2013-01-22 12:23:00,
2013-01-22 04:24:00,38.1,30.9,29.98,SSW,202,0.0,1.1,75,0.00,,,0.00,WUHU21623XXSP,2013-01-22 12:24:00,
2013-01-22 04:27:00,37.9,30.7,29.98,SSW,202,0.0,2.7,75,0.00,,,0.00,WUHU21623XXSP,2013-01-22 12:27:00,
2013-01-22 04:28:00,37.9,30.7,29.98,SW,225,0.0,2.7,75,0.00,,,0.00,WUHU21623XXSP,2013-01-22 12:28:00,
2013-01-22 04:29:00,37.9,30.7,29.99,SW,225,0.0,2.7,75,0.00,,,0.00,WUHU21623XXSP,2013-01-22 12:29:00,
2013-01-22 04:33:00,37.6,30.4,29.98,SE,135,0.0,2.7,75,0.00,,,0.00,WUHU21623XXSP,2013-01-22 12:33:00,
2013-01-22 04:34:00,37.6,30.4,29.98,ESE,112,0.0,1.8,75,0.00,,,0.00,WUHU21623XXSP,2013-01-22 12:34:00,
2013-01-22 04:35:00,37.6,30.4,29.98,ESE,112,0.9,1.8,75,0.00,,,0.00,WUHU21623XXSP,2013-01-22 12:35:00,
2013-01-22 04:38:00,37.6,30.4,29.98,SE,135,0.0,1.8,75,0.00,,,0.00,WUHU21623XXSP,2013-01-22 12:38:00,
2013-01-22 04:40:00,37.4,30.2,29.98,SE,135,0.0,1.8,75,0.00,,,0.00,WUHU21623XXSP,2013-01-22 12:40:00,
2013-01-22 04:43:00,37.2,30.0,29.98,SE,135,0.0,1.8,75,0.00,,,0.00,WUHU21623XXSP,2013-01-22 12:43:00,
2013-01-22 04:45:00,37.2,30.0,29.99,SE,135,0.0,0.9,75,0.00,,,0.00,WUHU21623XXSP,2013-01-22 12:45:00,
2013-01-22 04:48:00,37.2,30.3,29.99,SE,135,0.0,0.0,76,0.00,,,0.00,WUHU21623XXSP,2013-01-22 12:48:00,
2013-01-22 04:50:00,37.2,30.3,29.99,SE,135,0.0,0.0,76,0.00,,,0.00,WUHU21623XXSP,2013-01-22 12:50:00,
2013-01-22 04:53:00,37.0,30.2,29.99,ESE,112,0.0,0.7,76,0.00,,,0.00,WUHU21623XXSP,2013-01-22 12:53:00,
2013-01-22 04:54:00,37.0,30.2,29.99,ESE,112,0.0,0.7,76,0.00,,,0.00,WUHU21623XXSP,2013-01-22 12:54:00,
2013-01-22 04:55:00,37.0,30.2,29.98,ESE,112,0.0,0.7,76,0.00,,,0.00,WUHU21623XXSP,2013-01-22 12:55:00,
2013-01-22 04:59:00,36.9,30.0,29.98,SE,135,0.0,0.7,76,0.00,,,0.00,WUHU21623XXSP,2013-01-22 12:59:00,
2013-01-22 05:00:00,36.7,29.8,29.98,SE,135,0.0,0.7,76,0.00,,,0.00,WUHU21623XXSP,2013-01-22 13:00:00,
2013-01-22 05:04:00,36.7,29.8,29.98,SSE,157,0.0,0.0,76,0.00,,,0.00,WUHU21623XXSP,2013-01-22 13:04:00,
2013-01-22 05:05:00,36.7,29.8,29.98,SSE,157,0.0,0.0,76,0.00,,,0.00,WUHU21623XXSP,2013-01-22 13:05:00,
2013-01-22 05:09:00,36.5,29.6,29.99,SSE,157,0.0,0.0,76,0.00,,,0.00,WUHU21623XXSP,2013-01-22 13:09:00,
2013-01-22 05:10:00,36.3,29.4,29.99,ESE,112,0.9,2.0,76,0.00,,,0.00,WUHU21623XXSP,2013-01-22 13:10:00,
2013-01-22 05:12:00,36.3,29.4,29.99,ESE,112,0.0,2.0,76,0.00,,,0.00,WUHU21623XXSP,2013-01-22 13:12:00,
2013-01-22 05:14:00,36.3,29.4,29.99,ESE,112,0.0,2.0,76,0.00,,,0.00,WUHU21623XXSP,2013-01-22 13:14:00,
2013-01-22 05:15:00,36.3,29.4,29.98,ESE,112,0.0,2.0,76,0.00,,,0.00,WUHU21623XXSP,2013-01-22 13:15:00,
2013-01-22 05:18:00,36.3,29.4,29.98,ESE,112,0.0,2.0,76,0.00,,,0.00,WUHU21623XXSP,2013-01-22 13:18:00,
2013-01-22 05:19:00,36.3,29.8,29.98,East,90,0.0,2.0,77,0.00,,,0.00,WUHU21623XXSP,2013-01-22 13:19:00,
2013-01-22 05:20:00,36.3,29.8,29.98,ESE,112,0.0,0.9,77,0.00,,,0.00,WUHU21623XXSP,2013-01-22 13:20:00,
2013-01-22 05:23:00,36.3,29.8,29.98,ESE,112,0.0,0.0,77,0.00,,,0.00,WUHU21623XXSP,2013-01-22 13:23:00,
2013-01-22 05:24:00,36.1,29.6,29.98,ESE,112,0.0,0.0,77,0.00,,,0.00,WUHU21623XXSP,2013-01-22 13:24:00,
2013-01-22 05:25:00,36.1,29.6,29.98,ESE,112,0.0,0.0,77,0.00,,,0.00,WUHU21623XXSP,2013-01-22 13:25:00,
2013-01-22 05:28:00,36.1,29.6,29.97,South,180,0.0,0.4,77,0.00,,,0.00,WUHU21623XXSP,2013-01-22 13:28:00,
2013-01-22 05:29:00,36.1,29.6,29.98,SSE,157,0.0,0.4,77,0.00,,,0.00,WUHU21623XXSP,2013-01-22 13:29:00,
2013-01-22 05:30:00,36.1,29.6,29.98,SSE,157,0.0,0.4,77,0.00,,,0.00,WUHU21623XXSP,2013-01-22 13:30:00,
2013-01-22 05:32:00,36.1,29.6,29.98,SE,135,0.0,2.2,77,0.00,,,0.00,WUHU21623XXSP,2013-01-22 13:32:00,
2013-01-22 05:33:00,36.1,29.6,29.97,SE,135,0.0,2.2,77,0.00,,,0.00,WUHU21623XXSP,2013-01-22 13:33:00,
2013-01-22 05:34:00,36.0,29.4,29.97,SE,135,0.0,2.2,77,0.00,,,0.00,WUHU21623XXSP,2013-01-22 13:34:00,
2013-01-22 05:35:00,36.0,29.4,29.97,SE,135,0.0,2.2,77,0.00,,,0.00,WUHU21623XXSP,2013-01-22 13:35:00,
2013-01-22 05:37:00,36.0,29.4,29.97,SE,135,0.0,2.2,77,0.00,,,0.00,WUHU21623XXSP,2013-01-22 13:37:00,
2013-01-22 05:38:00,36.1,29.6,29.97,SE,135,0.0,2.2,77,0.00,,,0.00,WUHU21623XXSP,2013-01-22 13:38:00,
2013-01-22 05:40:00,36.0,29.7,29.96,SSE,157,0.0,2.2,78,0.00,,,0.00,WUHU21623XXSP,2013-01-22 13:40:00,
2013-01-22 05:42:00,36.0,29.7,29.97,South,180,0.0,0.0,78,0.00,,,0.00,WUHU21623XXSP,2013-01-22 13:42:00,
2013-01-22 05:43:00,36.0,29.7,29.96,SE,135,0.0,0.0,78,0.00,,,0.00,WUHU21623XXSP,2013-01-22 13:43:00,
2013-01-22 05:45:00,36.0,29.7,29.97,SSW,202,0.0,0.0,78,0.00,,,0.00,WUHU21623XXSP,2013-01-22 13:45:00,
2013-01-22 05:47:00,36.0,29.7,29.96,SSW,202,0.0,0.0,78,0.00,,,0.00,WUHU21623XXSP,2013-01-22 13:47:00,
2013-01-22 05:49:00,36.0,29.7,29.96,SSW,202,0.0,0.0,78,0.00,,,0.00,WUHU21623XXSP,2013-01-22 13:49:00,
2013-01-22 05:50:00,36.0,29.7,29.97,SE,135,0.0,1.8,78,0.00,,,0.00,WUHU21623XXSP,2013-01-22 13:50:00,
2013-01-22 05:51:00,36.0,29.7,29.96,SSW,202,0.0,1.8,78,0.00,,,0.00,WUHU21623XXSP,2013-01-22 13:51:00,
2013-01-22 05:52:00,36.0,29.7,29.96,East,90,0.0,1.8,78,0.00,,,0.00,WUHU21623XXSP,2013-01-22 13:52:00,
2013-01-22 05:54:00,36.0,29.7,29.96,East,90,0.0,1.8,78,0.00,,,0.00,WUHU21623XXSP,2013-01-22 13:54:00,
2013-01-22 05:55:00,36.0,29.7,29.96,ESE,112,3.6,3.6,78,0.00,,,0.00,WUHU21623XXSP,2013-01-22 13:55:00,
2013-01-22 05:56:00,36.0,29.7,29.96,SSW,202,1.3,3.6,78,0.00,,,0.00,WUHU21623XXSP,2013-01-22 13:56:00,
2013-01-22 05:58:00,36.1,29.9,29.96,South,180,0.0,3.6,78,0.00,,,0.00,WUHU21623XXSP,2013-01-22 13:58:00,
2013-01-22 06:00:00,36.1,29.9,29.97,WSW,247,0.0,3.6,78,0.00,,,0.00,WUHU21623XXSP,2013-01-22 14:00:00,
2013-01-22 06:01:00,36.3,30.1,29.96,South,180,0.0,3.6,78,0.00,,,0.00,WUHU21623XXSP,2013-01-22 14:01:00,
2013-01-22 06:03:00,36.3,30.1,29.96,WSW,247,0.0,4.7,78,0.00,,,0.00,WUHU21623XXSP,2013-01-22 14:03:00,
2013-01-22 06:05:00,36.5,30.3,29.96,West,270,0.0,4.7,78,0.00,,,0.00,WUHU21623XXSP,2013-01-22 14:05:00,
2013-01-22 06:07:00,36.7,30.5,29.96,South,180,0.0,4.7,78,0.00,,,0.00,WUHU21623XXSP,2013-01-22 14:07:00,
2013-01-22 06:08:00,36.7,30.5,29.96,West,270,0.0,4.7,78,0.00,,,0.00,WUHU21623XXSP,2013-01-22 14:08:00,
2013-01-22 06:10:00,36.7,30.5,29.96,SE,135,0.0,4.7,78,0.00,,,0.00,WUHU21623XXSP,2013-01-22 14:10:00,
2013-01-22 06:11:00,36.9,30.6,29.96,West,270,0.0,4.7,78,0.00,,,0.00,WUHU21623XXSP,2013-01-22 14:11:00,
2013-01-22 06:12:00,37.0,30.5,29.96,NNE,22,0.0,3.8,77,0.00,,,0.00,WUHU21623XXSP,2013-01-22 14:12:00,
2013-01-22 06:13:00,37.0,30.5,29.96,North,0,0.0,3.8,77,0.00,,,0.00,WUHU21623XXSP,2013-01-22 14:13:00,
2013-01-22 06:15:00,37.0,30.5,29.96,SE,135,0.0,3.8,77,0.00,,,0.00,WUHU21623XXSP,2013-01-22 14:15:00,
2013-01-22 06:16:00,37.0,30.5,29.96,SE,135,0.0,3.8,77,0.00,,,0.00,WUHU21623XXSP,2013-01-22 14:16:00,
2013-01-22 06:17:00,37.2,30.7,29.96,SW,225,0.0,3.8,77,0.00,,,0.00,WUHU21623XXSP,2013-01-22 14:17:00,
2013-01-22 06:18:00,37.2,30.7,29.96,WSW,247,0.0,3.8,77,0.00,,,0.00,WUHU21623XXSP,2013-01-22 14:18:00,
2013-01-22 06:20:00,37.2,30.7,29.95,West,270,0.0,6.7,77,0.00,,,0.00,WUHU21623XXSP,2013-01-22 14:20:00,
2013-01-22 06:21:00,37.2,30.7,29.95,SSE,157,0.0,6.7,77,0.00,,,0.00,WUHU21623XXSP,2013-01-22 14:21:00,
2013-01-22 06:22:00,37.4,30.8,29.95,South,180,0.0,8.7,77,0.00,,,0.00,WUHU21623XXSP,2013-01-22 14:22:00,
2013-01-22 06:23:00,37.4,30.8,29.95,SE,135,1.8,8.7,77,0.00,,,0.00,WUHU21623XXSP,2013-01-22 14:23:00,
2013-01-22 06:25:00,37.4,30.5,29.96,NNW,337,0.0,8.7,76,0.00,,,0.00,WUHU21623XXSP,2013-01-22 14:25:00,
2013-01-22 06:26:00,37.6,30.7,29.95,WSW,247,0.0,8.7,76,0.00,,,0.00,WUHU21623XXSP,2013-01-22 14:26:00,
2013-01-22 06:28:00,37.6,30.7,29.95,SSE,157,0.0,8.7,76,0.00,,,0.00,WUHU21623XXSP,2013-01-22 14:28:00,
2013-01-22 06:31:00,37.8,30.9,29.95,South,180,0.0,8.7,76,0.00,,,0.00,WUHU21623XXSP,2013-01-22 14:31:00,
2013-01-22 06:32:00,37.8,30.9,29.95,SE,135,0.0,6.5,76,0.00,,,0.00,WUHU21623XXSP,2013-01-22 14:32:00,
2013-01-22 06:33:00,37.8,30.9,29.95,NNW,337,0.0,6.5,76,0.00,,,0.00,WUHU21623XXSP,2013-01-22 14:33:00,
2013-01-22 06:34:00,37.9,31.0,29.95,NNW,337,0.0,6.5,76,0.00,,,0.00,WUHU21623XXSP,2013-01-22 14:34:00,
2013-01-22 06:36:00,37.9,30.7,29.96,NW,315,0.0,6.5,75,0.00,,,0.00,WUHU21623XXSP,2013-01-22 14:36:00,
2013-01-22 06:37:00,37.9,30.7,29.96,WSW,247,1.6,6.5,75,0.00,,,0.00,WUHU21623XXSP,2013-01-22 14:37:00,
2013-01-22 06:38:00,37.9,30.7,29.96,WSW,247,0.0,6.5,75,0.00,,,0.00,WUHU21623XXSP,2013-01-22 14:38:00,
2013-01-22 06:39:00,37.9,30.7,29.96,WSW,247,0.0,2.7,75,0.00,,,0.00,WUHU21623XXSP,2013-01-22 14:39:00,
2013-01-22 06:41:00,37.9,30.7,29.96,West,270,0.0,2.7,75,0.00,,,0.00,WUHU21623XXSP,2013-01-22 14:41:00,
2013-01-22 06:42:00,37.9,30.7,29.96,South,180,0.0,2.7,75,0.00,,,0.00,WUHU21623XXSP,2013-01-22 14:42:00,
2013-01-22 06:43:00,37.9,30.7,29.96,ENE,67,0.0,1.8,75,0.00,,,0.00,WUHU21623XXSP,2013-01-22 14:43:00,
2013-01-22 06:44:00,37.9,30.7,29.96,SE,135,0.0,1.8,75,0.00,,,0.00,WUHU21623XXSP,2013-01-22 14:44:00,
2013-01-22 06:46:00,37.9,30.7,29.96,ESE,112,0.0,5.1,75,0.00,,,0.00,WUHU21623XXSP,2013-01-22 14:46:00,
2013-01-22 06:47:00,38.1,30.9,29.96,SE,135,0.0,5.1,75,0.00,,,0.00,WUHU21623XXSP,2013-01-22 14:47:00,
2013-01-22 06:48:00,38.1,30.9,29.96,SE,135,0.0,5.1,75,0.00,,,0.00,WUHU21623XXSP,2013-01-22 14:48:00,
2013-01-22 06:49:00,37.9,30.7,29.96,SE,135,1.1,5.1,75,0.00,,,0.00,WUHU21623XXSP,2013-01-22 14:49:00,
2013-01-22 06:51:00,37.9,30.7,29.96,SE,135,0.0,5.1,75,0.00,,,0.00,WUHU21623XXSP,2013-01-22 14:51:00,
2013-01-22 06:53:00,37.9,30.7,29.96,SE,135,0.0,5.1,75,0.00,,,0.00,WUHU21623XXSP,2013-01-22 14:53:00,
2013-01-22 06:54:00,37.9,30.7,29.96,South,180,1.1,5.1,75,0.00,,,0.00,WUHU21623XXSP,2013-01-22 14:54:00,
2013-01-22 06:55:00,37.9,30.7,29.96,NNE,22,0.0,2.7,75,0.00,,,0.00,WUHU21623XXSP,2013-01-22 14:55:00,
2013-01-22 06:56:00,37.9,30.7,29.96,North,0,0.0,1.3,75,0.00,,,0.00,WUHU21623XXSP,2013-01-22 14:56:00,
2013-01-22 06:58:00,37.9,30.7,29.96,NNE,22,0.0,1.3,75,0.00,,,0.00,WUHU21623XXSP,2013-01-22 14:58:00,
2013-01-22 06:59:00,37.9,30.7,29.96,NNE,22,0.0,2.7,75,0.00,,,0.00,WUHU21623XXSP,2013-01-22 14:59:00,
2013-01-22 07:00:00,37.9,30.7,29.96,ESE,112,3.4,3.4,75,0.00,,,0.00,WUHU21623XXSP,2013-01-22 15:00:00,
2013-01-22 07:01:00,37.9,30.4,29.96,ESE,112,0.0,8.3,74,0.00,,,0.00,WUHU21623XXSP,2013-01-22 15:01:00,
2013-01-22 07:03:00,37.9,30.4,29.96,SE,135,0.0,8.3,74,0.00,,,0.00,WUHU21623XXSP,2013-01-22 15:03:00,
2013-01-22 07:04:00,37.9,30.4,29.96,SE,135,0.0,8.3,74,0.00,,,0.00,WUHU21623XXSP,2013-01-22 15:04:00,
2013-01-22 07:05:00,37.9,30.4,29.96,SE,135,0.0,8.3,74,0.00,,,0.00,WUHU21623XXSP,2013-01-22 15:05:00,
2013-01-22 07:07:00,37.9,30.4,29.96,SE,135,0.0,8.3,74,0.00,,,0.00,WUHU21623XXSP,2013-01-22 15:07:00,
2013-01-22 07:08:00,37.9,30.4,29.96,SSW,202,0.0,8.3,74,0.00,,,0.00,WUHU21623XXSP,2013-01-22 15:08:00,
2013-01-22 07:10:00,37.8,30.2,29.96,South,180,0.0,8.3,74,0.00,,,0.00,WUHU21623XXSP,2013-01-22 15:10:00,
2013-01-22 07:12:00,37.9,30.4,29.96,SSE,157,0.0,4.5,74,0.00,,,0.00,WUHU21623XXSP,2013-01-22 15:12:00,
2013-01-22 07:13:00,37.9,30.4,29.96,ESE,112,0.0,4.5,74,0.00,,,0.00,WUHU21623XXSP,2013-01-22 15:13:00,
2013-01-22 07:15:00,37.8,30.2,29.96,ENE,67,0.0,4.5,74,0.00,,,0.00,WUHU21623XXSP,2013-01-22 15:15:00,
2013-01-22 07:17:00,37.8,30.2,29.96,NE,45,0.0,3.4,74,0.00,,,0.00,WUHU21623XXSP,2013-01-22 15:17:00,
2013-01-22 07:18:00,37.8,30.2,29.96,ENE,67,0.0,3.4,74,0.00,,,0.00,WUHU21623XXSP,2013-01-22 15:18:00,
2013-01-22 07:20:00,37.8,30.2,29.96,NW,315,0.0,3.4,74,0.00,,,0.00,WUHU21623XXSP,2013-01-22 15:20:00,
2013-01-22 07:21:00,37.8,30.2,29.96,NNE,22,0.0,3.4,74,0.00,,,0.00,WUHU21623XXSP,2013-01-22 15:21:00,
2013-01-22 07:22:00,37.6,30.0,29.96,ESE,112,0.0,3.4,74,0.00,,,0.00,WUHU21623XXSP,2013-01-22 15:22:00,
2013-01-22 07:24:00,37.8,30.2,29.96,WNW,292,0.0,3.1,74,0.00,,,0.00,WUHU21623XXSP,2013-01-22 15:24:00,
2013-01-22 07:25:00,37.6,30.0,29.96,SSW,202,0.0,3.1,74,0.00,,,0.00,WUHU21623XXSP,2013-01-22 15:25:00,
2013-01-22 07:26:00,37.6,30.0,29.95,SSW,202,0.0,3.1,74,0.00,,,0.00,WUHU21623XXSP,2013-01-22 15:26:00,
2013-01-22 07:27:00,37.6,30.0,29.95,South,180,0.0,3.1,74,0.00,,,0.00,WUHU21623XXSP,2013-01-22 15:27:00,
2013-01-22 07:29:00,37.6,30.0,29.96,NNE,22,0.0,4.0,74,0.00,,,0.00,WUHU21623XXSP,2013-01-22 15:29:00,
2013-01-22 07:30:00,37.6,30.0,29.96,SW,225,0.0,4.0,74,0.00,,,0.00,WUHU21623XXSP,2013-01-22 15:30:00,
2013-01-22 07:32:00,37.6,30.0,29.95,SE,135,0.0,4.0,74,0.00,,,0.00,WUHU21623XXSP,2013-01-22 15:32:00,
2013-01-22 07:34:00,37.6,30.0,29.95,SSW,202,0.0,4.0,74,0.00,,,0.00,WUHU21623XXSP,2013-01-22 15:34:00,
2013-01-22 07:35:00,37.6,30.0,29.95,NNE,22,0.0,4.0,74,0.00,,,0.00,WUHU21623XXSP,2013-01-22 15:35:00,
2013-01-22 07:37:00,37.8,30.2,29.95,SSE,157,0.0,4.0,74,0.00,,,0.00,WUHU21623XXSP,2013-01-22 15:37:00,
2013-01-22 07:39:00,37.8,30.2,29.95,ESE,112,1.6,2.9,74,0.00,,,0.00,WUHU21623XXSP,2013-01-22 15:39:00,
2013-01-22 07:40:00,37.8,30.2,29.95,West,270,0.0,4.0,74,0.00,,,0.00,WUHU21623XXSP,2013-01-22 15:40:00,
2013-01-22 07:42:00,37.8,30.2,29.95,South,180,2.7,4.0,74,0.00,,,0.00,WUHU21623XXSP,2013-01-22 15:42:00,
2013-01-22 07:43:00,37.8,30.2,29.95,South,180,2.7,4.0,74,0.00,,,0.00,WUHU21623XXSP,2013-01-22 15:43:00,
2013-01-22 07:44:00,37.8,29.9,29.95,SW,225,0.0,4.0,73,0.00,,,0.00,WUHU21623XXSP,2013-01-22 15:44:00,
2013-01-22 07:45:00,37.8,29.9,29.94,NE,45,0.0,4.0,73,0.00,,,0.00,WUHU21623XXSP,2013-01-22 15:45:00,
2013-01-22 07:47:00,37.8,29.9,29.94,NNE,22,0.0,4.0,73,0.00,,,0.00,WUHU21623XXSP,2013-01-22 15:47:00,
2013-01-22 07:48:00,37.8,29.9,29.94,NNE,22,0.0,4.0,73,0.00,,,0.00,WUHU21623XXSP,2013-01-22 15:48:00,
2013-01-22 07:49:00,37.6,29.7,29.95,ESE,112,0.0,6.7,73,0.00,,,0.00,WUHU21623XXSP,2013-01-22 15:49:00,
2013-01-22 07:51:00,37.6,29.7,29.94,NW,315,0.0,6.7,73,0.00,,,0.00,WUHU21623XXSP,2013-01-22 15:51:00,
2013-01-22 07:53:00,37.6,29.7,29.94,SSE,157,1.3,6.7,73,0.00,,,0.00,WUHU21623XXSP,2013-01-22 15:53:00,
2013-01-22 07:54:00,37.6,29.7,29.94,SE,135,0.0,6.7,73,0.00,,,0.00,WUHU21623XXSP,2013-01-22 15:54:00,
2013-01-22 07:56:00,37.6,29.7,29.94,SSW,202,0.0,6.7,73,0.00,,,0.00,WUHU21623XXSP,2013-01-22 15:56:00,
2013-01-22 07:58:00,37.6,29.7,29.94,NNE,22,0.0,6.7,73,0.00,,,0.00,WUHU21623XXSP,2013-01-22 15:58:00,
2013-01-22 08:00:00,37.6,29.7,29.94,North,0,0.0,2.5,73,0.00,,,0.00,WUHU21623XXSP,2013-01-22 16:00:00,
2013-01-22 08:01:00,37.6,29.7,29.94,NNE,22,0.0,6.5,73,0.00,,,0.00,WUHU21623XXSP,2013-01-22 16:01:00,
2013-01-22 08:03:00,37.6,30.0,29.95,SE,135,0.0,6.5,74,0.00,,,0.00,WUHU21623XXSP,2013-01-22 16:03:00,
2013-01-22 08:05:00,37.4,29.9,29.94,ENE,67,0.0,6.5,74,0.00,,,0.00,WUHU21623XXSP,2013-01-22 16:05:00,
2013-01-22 08:06:00,37.6,29.7,29.94,SE,135,3.6,6.5,74,0.00,,,0.00,WUHU21623XXSP,2013-01-22 16:06:00,
2013-01-22 08:08:00,37.6,30.0,29.94,West,270,0.0,6.5,74,0.00,,,0.00,WUHU21623XXSP,2013-01-22 16:08:00,
2013-01-22 08:09:00,37.6,30.0,29.94,East,90,3.6,6.5,74,0.00,,,0.00,WUHU21623XXSP,2013-01-22 16:09:00,
2013-01-22 08:10:00,37.6,29.7,29.94,South,180,0.0,6.5,73,0.00,,,0.00,WUHU21623XXSP,2013-01-22 16:10:00,
2013-01-22 08:11:00,37.6,29.7,29.95,North,0,0.0,5.1,73,0.00,,,0.00,WUHU21623XXSP,2013-01-22 16:11:00,
2013-01-22 08:13:00,37.6,29.7,29.95,SW,225,0.0,7.4,73,0.00,,,0.00,WUHU21623XXSP,2013-01-22 16:13:00,
2013-01-22 08:14:00,37.6,29.7,29.94,West,270,1.8,7.4,73,0.00,,,0.00,WUHU21623XXSP,2013-01-22 16:14:00,
2013-01-22 08:15:00,37.6,29.7,29.94,South,180,0.0,7.4,73,0.00,,,0.00,WUHU21623XXSP,2013-01-22 16:15:00,
2013-01-22 08:17:00,37.6,29.7,29.94,North,0,0.0,7.4,73,0.00,,,0.00,WUHU21623XXSP,2013-01-22 16:17:00,
2013-01-22 08:18:00,37.8,29.9,29.95,SSE,157,1.6,7.4,73,0.00,,,0.00,WUHU21623XXSP,2013-01-22 16:18:00,
2013-01-22 08:19:00,37.8,29.9,29.95,ESE,112,0.0,7.4,73,0.00,,,0.00,WUHU21623XXSP,2013-01-22 16:19:00,
2013-01-22 08:20:00,37.8,29.9,29.95,SSE,157,0.0,8.1,73,0.00,,,0.00,WUHU21623XXSP,2013-01-22 16:20:00,
2013-01-22 08:22:00,37.8,29.9,29.95,NNW,337,0.0,8.1,73,0.00,,,0.00,WUHU21623XXSP,2013-01-22 16:22:00,
2013-01-22 08:23:00,37.8,29.9,29.94,SSE,157,0.9,8.1,73,0.00,,,0.00,WUHU21623XXSP,2013-01-22 16:23:00,
2013-01-22 08:24:00,37.8,29.9,29.95,WNW,292,0.0,8.1,73,0.00,,,0.00,WUHU21623XXSP,2013-01-22 16:24:00,
2013-01-22 08:26:00,37.9,30.0,29.94,SE,135,0.0,8.1,73,0.00,,,0.00,WUHU21623XXSP,2013-01-22 16:26:00,
2013-01-22 08:28:00,37.9,30.0,29.95,SSE,157,0.0,8.1,73,0.00,,,0.00,WUHU21623XXSP,2013-01-22 16:28:00,
2013-01-22 08:29:00,37.9,30.0,29.95,SE,135,0.0,8.1,73,0.00,,,0.00,WUHU21623XXSP,2013-01-22 16:29:00,
2013-01-22 08:32:00,37.9,30.0,29.95,NE,45,0.0,4.7,73,0.00,,,0.00,WUHU21623XXSP,2013-01-22 16:32:00,
2013-01-22 08:33:00,37.9,30.0,29.95,SE,135,1.1,4.7,73,0.00,,,0.00,WUHU21623XXSP,2013-01-22 16:33:00,
2013-01-22 08:34:00,37.9,30.0,29.95,SSE,157,1.6,4.7,73,0.00,,,0.00,WUHU21623XXSP,2013-01-22 16:34:00,
2013-01-22 08:37:00,37.9,30.0,29.95,SSE,157,0.0,6.9,73,0.00,,,0.00,WUHU21623XXSP,2013-01-22 16:37:00,
2013-01-22 08:38:00,37.9,30.0,29.95,South,180,0.0,6.9,73,0.00,,,0.00,WUHU21623XXSP,2013-01-22 16:38:00,
2013-01-22 08:39:00,37.9,30.0,29.95,West,270,0.0,6.9,73,0.00,,,0.00,WUHU21623XXSP,2013-01-22 16:39:00,
2013-01-22 08:42:00,37.9,30.0,29.95,NNW,337,0.0,6.9,73,0.00,,,0.00,WUHU21623XXSP,2013-01-22 16:42:00,
2013-01-22 08:43:00,38.1,30.2,29.95,SE,135,0.0,6.9,73,0.00,,,0.00,WUHU21623XXSP,2013-01-22 16:43:00,
2013-01-22 08:44:00,38.1,30.2,29.95,NW,315,0.0,6.9,73,0.00,,,0.00,WUHU21623XXSP,2013-01-22 16:44:00,
2013-01-22 08:47:00,38.1,30.2,29.95,North,0,0.0,3.4,73,0.00,,,0.00,WUHU21623XXSP,2013-01-22 16:47:00,
2013-01-22 08:48:00,38.1,30.2,29.95,NNW,337,0.0,3.4,73,0.00,,,0.00,WUHU21623XXSP,2013-01-22 16:48:00,
2013-01-22 08:49:00,38.1,30.2,29.95,SSE,157,4.5,4.5,73,0.00,,,0.00,WUHU21623XXSP,2013-01-22 16:49:00,
2013-01-22 08:52:00,38.3,30.1,29.95,SE,135,1.6,4.5,72,0.00,,,0.00,WUHU21623XXSP,2013-01-22 16:52:00,
2013-01-22 08:53:00,38.5,30.2,29.95,West,270,0.0,4.5,72,0.00,,,0.00,WUHU21623XXSP,2013-01-22 16:53:00,
2013-01-22 08:54:00,38.5,30.2,29.95,SE,135,0.0,4.5,72,0.00,,,0.00,WUHU21623XXSP,2013-01-22 16:54:00,
2013-01-22 08:57:00,38.5,30.2,29.95,SSE,157,0.0,5.6,72,0.00,,,0.00,WUHU21623XXSP,2013-01-22 16:57:00,
2013-01-22 08:58:00,38.5,30.2,29.95,SSE,157,2.0,5.6,72,0.00,,,0.00,WUHU21623XXSP,2013-01-22 16:58:00,
2013-01-22 08:59:00,38.5,30.2,29.95,NNE,22,0.0,5.6,72,0.00,,,0.00,WUHU21623XXSP,2013-01-22 16:59:00,
2013-01-22 09:02:00,38.8,30.5,29.95,SW,225,0.0,5.6,72,0.00,,,0.00,WUHU21623XXSP,2013-01-22 17:02:00,
2013-01-22 09:03:00,38.8,30.5,29.95,NE,45,0.7,5.6,72,0.00,,,0.00,WUHU21623XXSP,2013-01-22 17:03:00,
2013-01-22 09:04:00,38.8,30.5,29.95,SW,225,0.0,5.6,72,0.00,,,0.00,WUHU21623XXSP,2013-01-22 17:04:00,
2013-01-22 09:08:00,39.0,30.7,29.95,North,0,0.4,5.6,72,0.00,,,0.00,WUHU21623XXSP,2013-01-22 17:08:00,
2013-01-22 09:09:00,39.0,30.7,29.95,NNW,337,5.1,5.6,72,0.00,,,0.00,WUHU21623XXSP,2013-01-22 17:09:00,
2013-01-22 09:13:00,39.6,31.2,29.95,NE,45,0.0,5.6,72,0.00,,,0.00,WUHU21623XXSP,2013-01-22 17:13:00,
2013-01-22 09:14:00,39.6,30.9,29.95,West,270,0.0,5.1,71,0.00,,,0.00,WUHU21623XXSP,2013-01-22 17:14:00,
2013-01-22 09:15:00,39.6,30.9,29.95,West,270,0.0,5.1,71,0.00,,,0.00,WUHU21623XXSP,2013-01-22 17:15:00,
2013-01-22 09:18:00,39.7,31.1,29.95,ENE,67,0.0,5.1,71,0.00,,,0.00,WUHU21623XXSP,2013-01-22 17:18:00,
2013-01-22 09:20:00,39.9,31.2,29.95,SSE,157,0.0,3.6,71,0.00,,,0.00,WUHU21623XXSP,2013-01-22 17:20:00,
2013-01-22 09:22:00,39.9,31.2,29.95,SSW,202,0.0,3.6,71,0.00,,,0.00,WUHU21623XXSP,2013-01-22 17:22:00,
2013-01-22 09:23:00,39.9,31.2,29.95,SSW,202,0.0,3.6,71,0.00,,,0.00,WUHU21623XXSP,2013-01-22 17:23:00,
2013-01-22 09:25:00,40.1,31.4,29.95,SSE,157,0.9,3.6,71,0.00,,,0.00,WUHU21623XXSP,2013-01-22 17:25:00,
2013-01-22 09:27:00,40.3,31.6,29.95,NW,315,0.0,3.4,71,0.00,,,0.00,WUHU21623XXSP,2013-01-22 17:27:00,
2013-01-22 09:28:00,40.3,31.6,29.95,NW,315,0.0,3.4,71,0.00,,,0.00,WUHU21623XXSP,2013-01-22 17:28:00,
2013-01-22 09:29:00,40.3,31.6,29.95,NW,315,0.0,3.4,71,0.00,,,0.00,WUHU21623XXSP,2013-01-22 17:29:00,
2013-01-22 09:30:00,40.3,31.3,29.95,ESE,112,2.2,4.9,70,0.00,,,0.00,WUHU21623XXSP,2013-01-22 17:30:00,
2013-01-22 09:32:00,40.5,31.5,29.94,North,0,3.8,4.9,70,0.00,,,0.00,WUHU21623XXSP,2013-01-22 17:32:00,
2013-01-22 09:33:00,40.5,31.5,29.94,South,180,0.0,4.9,70,0.00,,,0.00,WUHU21623XXSP,2013-01-22 17:33:00,
2013-01-22 09:34:00,40.6,31.6,29.94,ESE,112,3.8,4.9,70,0.00,,,0.00,WUHU21623XXSP,2013-01-22 17:34:00,
2013-01-22 09:35:00,40.6,31.6,29.94,SE,135,0.0,4.9,70,0.00,,,0.00,WUHU21623XXSP,2013-01-22 17:35:00,
2013-01-22 09:38:00,40.8,31.8,29.94,East,90,0.0,4.9,70,0.00,,,0.00,WUHU21623XXSP,2013-01-22 17:38:00,
2013-01-22 09:39:00,40.8,31.8,29.95,SE,135,2.7,4.9,70,0.00,,,0.00,WUHU21623XXSP,2013-01-22 17:39:00,
2013-01-22 09:41:00,41.0,31.8,29.95,North,0,0.0,5.1,70,0.00,,,0.00,WUHU21623XXSP,2013-01-22 17:41:00,
2013-01-22 09:43:00,41.2,32.2,29.95,SE,135,0.0,5.1,70,0.00,,,0.00,WUHU21623XXSP,2013-01-22 17:43:00,
2013-01-22 09:44:00,41.2,32.2,29.95,SE,135,2.9,5.1,70,0.00,,,0.00,WUHU21623XXSP,2013-01-22 17:44:00,
2013-01-22 09:46:00,41.4,32.4,29.95,East,90,0.0,5.1,70,0.00,,,0.00,WUHU21623XXSP,2013-01-22 17:46:00,
2013-01-22 09:49:00,41.5,32.1,29.95,SSW,202,0.7,5.1,69,0.00,,,0.00,WUHU21623XXSP,2013-01-22 17:49:00,
2013-01-22 09:51:00,41.5,32.1,29.95,North,0,0.0,5.1,69,0.00,,,0.00,WUHU21623XXSP,2013-01-22 17:51:00,
2013-01-22 09:54:00,41.9,32.1,29.95,SE,135,0.0,6.9,68,0.00,,,0.00,WUHU21623XXSP,2013-01-22 17:54:00,
2013-01-22 09:57:00,42.1,32.7,29.95,SE,135,1.8,6.9,69,0.00,,,0.00,WUHU21623XXSP,2013-01-22 17:57:00,
2013-01-22 09:59:00,42.4,33.0,29.95,ENE,67,0.0,6.9,69,0.00,,,0.00,WUHU21623XXSP,2013-01-22 17:59:00,
2013-01-22 10:02:00,42.6,32.8,29.95,SSE,157,0.9,6.9,68,0.00,,,0.00,WUHU21623XXSP,2013-01-22 18:02:00,
2013-01-22 10:04:00,42.6,32.8,29.95,North,0,0.0,6.7,68,0.00,,,0.00,WUHU21623XXSP,2013-01-22 18:04:00,
2013-01-22 10:07:00,43.2,33.3,29.95,NNW,337,0.0,6.7,68,0.00,,,0.00,WUHU21623XXSP,2013-01-22 18:07:00,
2013-01-22 10:09:00,43.3,33.1,29.95,SSW,202,1.1,6.7,67,0.00,,,0.00,WUHU21623XXSP,2013-01-22 18:09:00,
2013-01-22 10:10:00,43.3,33.1,29.95,West,270,0.0,8.5,67,0.00,,,0.00,WUHU21623XXSP,2013-01-22 18:10:00,
2013-01-22 10:12:00,43.3,33.1,29.95,SE,135,0.0,8.5,67,0.00,,,0.00,WUHU21623XXSP,2013-01-22 18:12:00,
2013-01-22 10:14:00,43.7,33.4,29.95,North,0,0.0,8.5,67,0.00,,,0.00,WUHU21623XXSP,2013-01-22 18:14:00,
2013-01-22 10:15:00,43.7,33.4,29.95,SE,135,0.0,8.5,67,0.00,,,0.00,WUHU21623XXSP,2013-01-22 18:15:00,
2013-01-22 10:17:00,43.9,33.6,29.95,West,270,0.0,8.5,67,0.00,,,0.00,WUHU21623XXSP,2013-01-22 18:17:00,
2013-01-22 10:19:00,44.2,33.9,29.95,SE,135,0.0,3.6,67,0.00,,,0.00,WUHU21623XXSP,2013-01-22 18:19:00,
2013-01-22 10:20:00,44.2,33.9,29.95,SE,135,0.0,3.6,67,0.00,,,0.00,WUHU21623XXSP,2013-01-22 18:20:00,
2013-01-22 10:22:00,44.4,33.7,29.95,SSW,202,0.0,3.6,66,0.00,,,0.00,WUHU21623XXSP,2013-01-22 18:22:00,
2013-01-22 10:24:00,44.4,33.7,29.95,South,180,0.0,3.6,66,0.00,,,0.00,WUHU21623XXSP,2013-01-22 18:24:00,
2013-01-22 10:25:00,44.6,33.9,29.95,SSE,157,0.0,3.6,66,0.00,,,0.00,WUHU21623XXSP,2013-01-22 18:25:00,
2013-01-22 10:27:00,44.8,34.1,29.95,SW,225,1.1,3.6,66,0.00,,,0.00,WUHU21623XXSP,2013-01-22 18:27:00,
2013-01-22 10:29:00,45.0,33.9,29.95,SSE,157,0.0,5.8,65,0.00,,,0.00,WUHU21623XXSP,2013-01-22 18:29:00,
2013-01-22 10:30:00,45.0,33.9,29.95,NNE,22,0.0,5.8,65,0.00,,,0.00,WUHU21623XXSP,2013-01-22 18:30:00,
2013-01-22 10:32:00,45.1,34.0,29.95,WSW,247,0.0,5.8,65,0.00,,,0.00,WUHU21623XXSP,2013-01-22 18:32:00,
2013-01-22 10:34:00,45.1,34.0,29.95,ESE,112,0.0,5.8,65,0.00,,,0.00,WUHU21623XXSP,2013-01-22 18:34:00,
2013-01-22 10:35:00,45.1,34.0,29.95,ESE,112,0.0,5.8,65,0.00,,,0.00,WUHU21623XXSP,2013-01-22 18:35:00,
2013-01-22 10:37:00,45.3,33.8,29.95,NNE,22,0.0,3.4,64,0.00,,,0.00,WUHU21623XXSP,2013-01-22 18:37:00,
2013-01-22 10:39:00,45.5,34.0,29.95,NNE,22,3.8,3.8,64,0.00,,,0.00,WUHU21623XXSP,2013-01-22 18:39:00,
2013-01-22 10:40:00,45.7,33.8,29.95,ESE,112,1.1,3.8,63,0.00,,,0.00,WUHU21623XXSP,2013-01-22 18:40:00,
2013-01-22 10:43:00,45.7,33.8,29.95,NE,45,0.0,6.0,63,0.00,,,0.00,WUHU21623XXSP,2013-01-22 18:43:00,
2013-01-22 10:45:00,45.7,33.8,29.95,NNE,22,0.0,6.0,63,0.00,,,0.00,WUHU21623XXSP,2013-01-22 18:45:00,
2013-01-22 10:48:00,46.0,34.1,29.95,East,90,1.8,6.0,63,0.00,,,0.00,WUHU21623XXSP,2013-01-22 18:48:00,
2013-01-22 10:50:00,46.2,34.3,29.94,ESE,112,0.0,6.0,63,0.00,,,0.00,WUHU21623XXSP,2013-01-22 18:50:00,
2013-01-22 10:51:00,46.2,34.3,29.94,North,0,0.0,5.8,63,0.00,,,0.00,WUHU21623XXSP,2013-01-22 18:51:00,
2013-01-22 10:53:00,46.2,34.3,29.95,NE,45,0.0,5.8,63,0.00,,,0.00,WUHU21623XXSP,2013-01-22 18:53:00,
2013-01-22 10:55:00,46.4,34.4,29.95,West,270,0.0,6.9,63,0.00,,,0.00,WUHU21623XXSP,2013-01-22 18:55:00,
2013-01-22 10:56:00,46.4,34.4,29.95,SW,225,0.0,6.9,63,0.00,,,0.00,WUHU21623XXSP,2013-01-22 18:56:00,
2013-01-22 10:58:00,46.6,34.2,29.95,West,270,0.0,6.9,62,0.00,,,0.00,WUHU21623XXSP,2013-01-22 18:58:00,
2013-01-22 11:00:00,46.8,34.4,29.95,ENE,67,1.8,6.9,62,0.00,,,0.00,WUHU21623XXSP,2013-01-22 19:00:00,
2013-01-22 11:02:00,46.9,34.6,29.94,South,180,0.0,6.9,62,0.00,,,0.00,WUHU21623XXSP,2013-01-22 19:02:00,
2013-01-22 11:03:00,46.8,34.4,29.94,SSE,157,2.5,6.9,62,0.00,,,0.00,WUHU21623XXSP,2013-01-22 19:03:00,
2013-01-22 11:05:00,46.9,34.6,29.94,North,0,0.0,6.0,62,0.00,,,0.00,WUHU21623XXSP,2013-01-22 19:05:00,
2013-01-22 11:06:00,46.9,34.6,29.94,NW,315,0.0,6.0,62,0.00,,,0.00,WUHU21623XXSP,2013-01-22 19:06:00,
2013-01-22 11:07:00,46.9,34.6,29.94,SE,135,0.0,6.0,62,0.00,,,0.00,WUHU21623XXSP,2013-01-22 19:07:00,
2013-01-22 11:08:00,47.1,34.8,29.94,NW,315,0.0,6.0,62,0.00,,,0.00,WUHU21623XXSP,2013-01-22 19:08:00,
2013-01-22 11:10:00,47.1,34.8,29.94,NW,315,0.0,6.0,62,0.00,,,0.00,WUHU21623XXSP,2013-01-22 19:10:00,
2013-01-22 11:11:00,47.1,34.8,29.94,SW,225,1.3,6.0,62,0.00,,,0.00,WUHU21623XXSP,2013-01-22 19:11:00,
2013-01-22 11:13:00,47.1,34.8,29.94,SSE,157,0.0,6.0,62,0.00,,,0.00,WUHU21623XXSP,2013-01-22 19:13:00,
2013-01-22 11:14:00,47.1,34.8,29.94,ESE,112,2.9,6.0,62,0.00,,,0.00,WUHU21623XXSP,2013-01-22 19:14:00,
2013-01-22 11:15:00,47.3,34.9,29.94,SE,135,0.0,4.9,62,0.00,,,0.00,WUHU21623XXSP,2013-01-22 19:15:00,
2013-01-22 11:16:00,47.1,34.8,29.94,SE,135,0.0,4.9,62,0.00,,,0.00,WUHU21623XXSP,2013-01-22 19:16:00,
2013-01-22 11:18:00,47.3,34.9,29.94,East,90,0.0,3.1,62,0.00,,,0.00,WUHU21623XXSP,2013-01-22 19:18:00,
2013-01-22 11:19:00,47.5,35.1,29.94,SE,135,2.0,3.1,62,0.00,,,0.00,WUHU21623XXSP,2013-01-22 19:19:00,
2013-01-22 11:20:00,47.5,35.1,29.94,NNW,337,0.0,2.9,62,0.00,,,0.00,WUHU21623XXSP,2013-01-22 19:20:00,
2013-01-22 11:21:00,47.5,35.1,29.94,NNW,337,0.0,2.9,62,0.00,,,0.00,WUHU21623XXSP,2013-01-22 19:21:00,
2013-01-22 11:23:00,47.8,35.5,29.93,WSW,247,0.0,2.9,62,0.00,,,0.00,WUHU21623XXSP,2013-01-22 19:23:00,
2013-01-22 11:24:00,47.8,35.5,29.93,East,90,0.0,2.9,62,0.00,,,0.00,WUHU21623XXSP,2013-01-22 19:24:00,
2013-01-22 11:26:00,48.0,35.6,29.93,North,0,0.0,2.9,62,0.00,,,0.00,WUHU21623XXSP,2013-01-22 19:26:00,
2013-01-22 11:28:00,48.2,35.4,29.94,ESE,112,0.0,2.5,61,0.00,,,0.00,WUHU21623XXSP,2013-01-22 19:28:00,
2013-01-22 11:29:00,48.4,35.2,29.93,WSW,247,0.0,2.5,60,0.00,,,0.00,WUHU21623XXSP,2013-01-22 19:29:00,
2013-01-22 11:31:00,48.6,35.4,29.93,SE,135,0.0,2.5,60,0.00,,,0.00,WUHU21623XXSP,2013-01-22 19:31:00,
2013-01-22 11:32:00,48.7,35.5,29.94,ESE,112,0.0,1.6,60,0.00,,,0.00,WUHU21623XXSP,2013-01-22 19:32:00,
2013-01-22 11:33:00,48.7,35.5,29.93,SSW,202,2.5,5.1,60,0.00,,,0.00,WUHU21623XXSP,2013-01-22 19:33:00,
2013-01-22 11:35:00,48.9,35.7,29.94,SE,135,1.1,5.1,60,0.00,,,0.00,WUHU21623XXSP,2013-01-22 19:35:00,
2013-01-22 11:36:00,49.1,35.9,29.94,ENE,67,0.0,5.1,60,0.00,,,0.00,WUHU21623XXSP,2013-01-22 19:36:00,
2013-01-22 11:37:00,49.1,35.9,29.94,SSE,157,1.3,5.1,60,0.00,,,0.00,WUHU21623XXSP,2013-01-22 19:37:00,
2013-01-22 11:38:00,49.3,36.0,29.93,NNW,337,0.0,5.1,60,0.00,,,0.00,WUHU21623XXSP,2013-01-22 19:38:00,
2013-01-22 11:40:00,49.3,36.0,29.93,NW,315,0.0,5.1,60,0.00,,,0.00,WUHU21623XXSP,2013-01-22 19:40:00,
2013-01-22 11:42:00,49.6,36.4,29.93,West,270,0.0,5.1,60,0.00,,,0.00,WUHU21623XXSP,2013-01-22 19:42:00,
2013-01-22 11:43:00,49.6,36.4,29.93,SSW,202,1.6,5.6,60,0.00,,,0.00,WUHU21623XXSP,2013-01-22 19:43:00,
2013-01-22 11:45:00,49.8,36.0,29.93,SE,135,0.0,5.6,59,0.00,,,0.00,WUHU21623XXSP,2013-01-22 19:45:00,
2013-01-22 11:47:00,50.2,36.4,29.93,ESE,112,0.0,5.6,59,0.00,,,0.00,WUHU21623XXSP,2013-01-22 19:47:00,
2013-01-22 11:48:00,50.0,36.2,29.94,ESE,112,0.0,6.5,59,0.00,,,0.00,WUHU21623XXSP,2013-01-22 19:48:00,
2013-01-22 11:51:00,50.4,36.6,29.94,ESE,112,0.0,6.5,59,0.00,,,0.00,WUHU21623XXSP,2013-01-22 19:51:00,
2013-01-22 11:52:00,50.5,36.7,29.94,SE,135,0.0,6.5,59,0.00,,,0.00,WUHU21623XXSP,2013-01-22 19:52:00,
2013-01-22 11:53:00,50.5,36.7,29.94,SE,135,2.0,6.5,59,0.00,,,0.00,WUHU21623XXSP,2013-01-22 19:53:00,
2013-01-22 11:56:00,50.7,36.9,29.93,ESE,112,0.0,6.5,59,0.00,,,0.00,WUHU21623XXSP,2013-01-22 19:56:00,
2013-01-22 11:57:00,50.7,36.9,29.94,SSW,202,1.3,5.6,59,0.00,,,0.00,WUHU21623XXSP,2013-01-22 19:57:00,
2013-01-22 11:58:00,50.7,36.9,29.93,ESE,112,2.9,5.6,59,0.00,,,0.00,WUHU21623XXSP,2013-01-22 19:58:00,
2013-01-22 11:59:00,50.9,36.6,29.93,ENE,67,0.9,5.6,58,0.00,,,0.00,WUHU21623XXSP,2013-01-22 19:59:00,
2013-01-22 12:02:00,51.1,36.8,29.93,ENE,67,0.0,3.4,58,0.00,,,0.00,WUHU21623XXSP,2013-01-22 20:02:00,
2013-01-22 12:03:00,51.3,36.9,29.93,SSE,157,0.0,3.4,58,0.00,,,0.00,WUHU21623XXSP,2013-01-22 20:03:00,
2013-01-22 12:04:00,51.3,36.9,29.93,SE,135,3.1,3.4,58,0.00,,,0.00,WUHU21623XXSP,2013-01-22 20:04:00,
2013-01-22 12:07:00,51.6,37.2,29.93,ESE,112,1.8,3.4,58,0.00,,,0.00,WUHU21623XXSP,2013-01-22 20:07:00,
2013-01-22 12:08:00,51.6,37.2,29.93,SE,135,0.0,3.4,58,0.00,,,0.00,WUHU21623XXSP,2013-01-22 20:08:00,
2013-01-22 12:09:00,51.6,37.2,29.93,ESE,112,0.0,3.4,58,0.00,,,0.00,WUHU21623XXSP,2013-01-22 20:09:00,
2013-01-22 12:12:00,51.8,37.0,29.93,SSE,157,0.0,3.1,57,0.00,,,0.00,WUHU21623XXSP,2013-01-22 20:12:00,
2013-01-22 12:13:00,51.8,37.0,29.93,SSE,157,0.0,3.1,57,0.00,,,0.00,WUHU21623XXSP,2013-01-22 20:13:00,
2013-01-22 12:14:00,52.0,37.1,29.93,SSE,157,2.9,3.6,57,0.00,,,0.00,WUHU21623XXSP,2013-01-22 20:14:00,
2013-01-22 12:18:00,52.2,37.3,29.93,SE,135,0.0,3.6,57,0.00,,,0.00,WUHU21623XXSP,2013-01-22 20:18:00,
2013-01-22 12:19:00,52.3,37.5,29.93,SE,135,0.0,3.6,57,0.00,,,0.00,WUHU21623XXSP,2013-01-22 20:19:00,
2013-01-22 12:23:00,52.5,37.6,29.94,ESE,112,0.0,3.6,57,0.00,,,0.00,WUHU21623XXSP,2013-01-22 20:23:00,
2013-01-22 12:24:00,52.5,37.6,29.93,NE,45,0.0,3.1,57,0.00,,,0.00,WUHU21623XXSP,2013-01-22 20:24:00,
2013-01-22 12:28:00,52.9,38.0,29.93,East,90,0.0,1.8,57,0.00,,,0.00,WUHU21623XXSP,2013-01-22 20:28:00,
2013-01-22 12:29:00,52.9,38.0,29.93,East,90,0.0,1.8,57,0.00,,,0.00,WUHU21623XXSP,2013-01-22 20:29:00,
2013-01-22 12:33:00,53.2,37.9,29.93,East,90,0.0,1.8,56,0.00,,,0.00,WUHU21623XXSP,2013-01-22 20:33:00,
2013-01-22 12:34:00,53.2,37.9,29.93,East,90,0.0,1.8,56,0.00,,,0.00,WUHU21623XXSP,2013-01-22 20:34:00,
2013-01-22 12:38:00,53.4,38.0,29.93,SE,135,0.0,2.5,56,0.00,,,0.00,WUHU21623XXSP,2013-01-22 20:38:00,
2013-01-22 12:39:00,53.4,38.0,29.93,ESE,112,0.0,2.5,56,0.00,,,0.00,WUHU21623XXSP,2013-01-22 20:39:00,
2013-01-22 12:43:00,53.4,37.6,29.93,SE,135,0.0,2.5,55,0.00,,,0.00,WUHU21623XXSP,2013-01-22 20:43:00,
2013-01-22 12:44:00,53.4,37.6,29.93,SE,135,0.0,2.5,55,0.00,,,0.00,WUHU21623XXSP,2013-01-22 20:44:00,
2013-01-22 12:45:00,53.4,37.6,29.93,ESE,112,0.0,1.3,55,0.00,,,0.00,WUHU21623XXSP,2013-01-22 20:45:00,
2013-01-22 12:48:00,53.6,37.8,29.93,SSE,157,0.0,3.1,55,0.00,,,0.00,WUHU21623XXSP,2013-01-22 20:48:00,
2013-01-22 12:49:00,53.8,37.9,29.93,SSE,157,0.0,3.1,55,0.00,,,0.00,WUHU21623XXSP,2013-01-22 20:49:00,
2013-01-22 12:50:00,53.8,37.9,29.93,SE,135,1.6,3.1,55,0.00,,,0.00,WUHU21623XXSP,2013-01-22 20:50:00,
2013-01-22 12:54:00,53.8,37.9,29.93,ESE,112,2.5,3.1,55,0.00,,,0.00,WUHU21623XXSP,2013-01-22 20:54:00,
2013-01-22 12:55:00,53.8,37.9,29.93,North,0,0.0,3.1,55,0.00,,,0.00,WUHU21623XXSP,2013-01-22 20:55:00,
2013-01-22 12:59:00,53.8,37.9,29.93,ESE,112,0.0,2.9,55,0.00,,,0.00,WUHU21623XXSP,2013-01-22 20:59:00,
2013-01-22 13:00:00,53.8,37.9,29.93,SSE,157,0.0,2.9,55,0.00,,,0.00,WUHU21623XXSP,2013-01-22 21:00:00,
2013-01-22 13:04:00,54.0,38.1,29.93,ENE,67,0.0,2.9,55,0.00,,,0.00,WUHU21623XXSP,2013-01-22 21:04:00,
2013-01-22 13:05:00,54.0,38.1,29.93,ENE,67,0.0,2.5,55,0.00,,,0.00,WUHU21623XXSP,2013-01-22 21:05:00,
2013-01-22 13:06:00,54.0,38.1,29.93,ENE,67,0.0,2.5,55,0.00,,,0.00,WUHU21623XXSP,2013-01-22 21:06:00,
2013-01-22 13:09:00,54.1,38.2,29.92,SSE,157,0.0,2.5,55,0.00,,,0.00,WUHU21623XXSP,2013-01-22 21:09:00,
2013-01-22 13:10:00,54.3,38.4,29.92,ESE,112,0.0,3.6,55,0.00,,,0.00,WUHU21623XXSP,2013-01-22 21:10:00,
2013-01-22 13:11:00,54.3,38.4,29.92,SE,135,0.0,3.6,55,0.00,,,0.00,WUHU21623XXSP,2013-01-22 21:11:00,
2013-01-22 13:14:00,54.3,38.4,29.92,NE,45,0.0,3.6,55,0.00,,,0.00,WUHU21623XXSP,2013-01-22 21:14:00,
2013-01-22 13:15:00,54.5,38.6,29.93,NE,45,0.0,3.6,55,0.00,,,0.00,WUHU21623XXSP,2013-01-22 21:15:00,
2013-01-22 13:17:00,54.5,38.6,29.92,SSE,157,0.0,3.6,55,0.00,,,0.00,WUHU21623XXSP,2013-01-22 21:17:00,
2013-01-22 13:19:00,54.9,38.4,29.92,ESE,112,0.0,3.6,54,0.00,,,0.00,WUHU21623XXSP,2013-01-22 21:19:00,
2013-01-22 13:20:00,55.0,38.6,29.92,SE,135,0.0,3.6,54,0.00,,,0.00,WUHU21623XXSP,2013-01-22 21:20:00,
2013-01-22 13:23:00,55.2,38.8,29.92,SE,135,1.1,3.6,54,0.00,,,0.00,WUHU21623XXSP,2013-01-22 21:23:00,
2013-01-22 13:24:00,55.2,38.8,29.91,NE,45,0.0,5.6,54,0.00,,,0.00,WUHU21623XXSP,2013-01-22 21:24:00,
2013-01-22 13:25:00,55.4,38.9,29.91,SE,135,0.0,5.6,54,0.00,,,0.00,WUHU21623XXSP,2013-01-22 21:25:00,
2013-01-22 13:28:00,55.6,39.1,29.91,WSW,247,0.0,5.6,54,0.00,,,0.00,WUHU21623XXSP,2013-01-22 21:28:00,
2013-01-22 13:29:00,55.8,38.8,29.91,SSE,157,2.0,5.6,53,0.00,,,0.00,WUHU21623XXSP,2013-01-22 21:29:00,
2013-01-22 13:30:00,55.8,38.8,29.92,ESE,112,0.0,5.6,53,0.00,,,0.00,WUHU21623XXSP,2013-01-22 21:30:00,
2013-01-22 13:31:00,55.8,38.8,29.91,NNE,22,0.0,5.6,53,0.00,,,0.00,WUHU21623XXSP,2013-01-22 21:31:00,
2013-01-22 13:33:00,55.9,39.0,29.92,ESE,112,2.0,5.4,53,0.00,,,0.00,WUHU21623XXSP,2013-01-22 21:33:00,
2013-01-22 13:34:00,55.9,39.0,29.92,SE,135,1.1,5.4,53,0.00,,,0.00,WUHU21623XXSP,2013-01-22 21:34:00,
2013-01-22 13:35:00,55.9,39.0,29.92,ESE,112,0.9,5.4,53,0.00,,,0.00,WUHU21623XXSP,2013-01-22 21:35:00,
2013-01-22 13:37:00,56.1,39.2,29.92,NE,45,0.0,5.4,53,0.00,,,0.00,WUHU21623XXSP,2013-01-22 21:37:00,
2013-01-22 13:38:00,56.1,39.2,29.92,East,90,2.9,5.4,53,0.00,,,0.00,WUHU21623XXSP,2013-01-22 21:38:00,
2013-01-22 13:39:00,56.1,39.2,29.92,East,90,0.0,5.4,53,0.00,,,0.00,WUHU21623XXSP,2013-01-22 21:39:00,
2013-01-22 13:40:00,56.3,39.3,29.91,ESE,112,0.0,5.4,53,0.00,,,0.00,WUHU21623XXSP,2013-01-22 21:40:00,
2013-01-22 13:43:00,56.3,39.3,29.91,ESE,112,0.9,5.4,53,0.00,,,0.00,WUHU21623XXSP,2013-01-22 21:43:00,
2013-01-22 13:44:00,56.5,39.5,29.91,SE,135,1.6,3.8,53,0.00,,,0.00,WUHU21623XXSP,2013-01-22 21:44:00,
2013-01-22 13:45:00,56.5,39.5,29.91,ESE,112,0.0,3.8,53,0.00,,,0.00,WUHU21623XXSP,2013-01-22 21:45:00,
2013-01-22 13:48:00,56.7,39.7,29.91,ESE,112,0.0,2.9,53,0.00,,,0.00,WUHU21623XXSP,2013-01-22 21:48:00,
2013-01-22 13:49:00,56.8,39.9,29.91,ESE,112,0.0,1.6,53,0.00,,,0.00,WUHU21623XXSP,2013-01-22 21:49:00,
2013-01-22 13:51:00,56.8,39.9,29.91,ESE,112,0.0,1.6,53,0.00,,,0.00,WUHU21623XXSP,2013-01-22 21:51:00,
2013-01-22 13:53:00,56.8,39.4,29.91,ESE,112,1.1,1.6,52,0.00,,,0.00,WUHU21623XXSP,2013-01-22 21:53:00,
2013-01-22 13:55:00,57.0,39.6,29.91,SE,135,0.0,1.1,52,0.00,,,0.00,WUHU21623XXSP,2013-01-22 21:55:00,
2013-01-22 13:56:00,57.0,39.6,29.91,SE,135,0.0,1.1,52,0.00,,,0.00,WUHU21623XXSP,2013-01-22 21:56:00,
2013-01-22 13:58:00,57.0,39.6,29.91,East,90,0.0,1.1,52,0.00,,,0.00,WUHU21623XXSP,2013-01-22 21:58:00,
2013-01-22 13:59:00,57.0,39.6,29.91,East,90,0.0,1.1,52,0.00,,,0.00,WUHU21623XXSP,2013-01-22 21:59:00,
2013-01-22 14:00:00,57.0,39.6,29.91,SSE,157,1.6,1.6,52,0.00,,,0.00,WUHU21623XXSP,2013-01-22 22:00:00,
2013-01-22 14:01:00,57.0,39.6,29.91,ESE,112,0.0,4.0,52,0.00,,,0.00,WUHU21623XXSP,2013-01-22 22:01:00,
2013-01-22 14:03:00,57.2,39.8,29.91,ESE,112,0.0,4.0,52,0.00,,,0.00,WUHU21623XXSP,2013-01-22 22:03:00,
2013-01-22 14:04:00,57.2,39.8,29.91,ESE,112,0.0,4.0,52,0.00,,,0.00,WUHU21623XXSP,2013-01-22 22:04:00,
2013-01-22 14:05:00,57.0,39.6,29.90,ESE,112,0.0,4.0,52,0.00,,,0.00,WUHU21623XXSP,2013-01-22 22:05:00,
2013-01-22 14:06:00,57.2,39.8,29.91,NNE,22,0.0,4.0,52,0.00,,,0.00,WUHU21623XXSP,2013-01-22 22:06:00,
2013-01-22 14:08:00,57.4,39.9,29.90,SE,135,0.0,4.0,52,0.00,,,0.00,WUHU21623XXSP,2013-01-22 22:08:00,
2013-01-22 14:09:00,57.2,39.9,29.90,SE,135,0.0,4.0,52,0.00,,,0.00,WUHU21623XXSP,2013-01-22 22:09:00,
2013-01-22 14:10:00,57.4,39.9,29.90,SE,135,0.0,4.0,52,0.00,,,0.00,WUHU21623XXSP,2013-01-22 22:10:00,
2013-01-22 14:12:00,57.0,39.6,29.90,ESE,112,0.0,3.1,52,0.00,,,0.00,WUHU21623XXSP,2013-01-22 22:12:00,
2013-01-22 14:13:00,57.0,39.6,29.90,SSW,202,0.0,3.1,52,0.00,,,0.00,WUHU21623XXSP,2013-01-22 22:13:00,
2013-01-22 14:14:00,57.0,39.6,29.90,SE,135,0.0,3.1,52,0.00,,,0.00,WUHU21623XXSP,2013-01-22 22:14:00,
2013-01-22 14:15:00,57.0,39.6,29.90,SE,135,0.0,3.1,52,0.00,,,0.00,WUHU21623XXSP,2013-01-22 22:15:00,
2013-01-22 14:17:00,57.0,39.6,29.90,ESE,112,0.0,0.9,52,0.00,,,0.00,WUHU21623XXSP,2013-01-22 22:17:00,
2013-01-22 14:19:00,57.0,39.6,29.90,ESE,112,0.0,0.9,52,0.00,,,0.00,WUHU21623XXSP,2013-01-22 22:19:00,
2013-01-22 14:20:00,57.0,39.6,29.90,ESE,112,0.0,0.9,52,0.00,,,0.00,WUHU21623XXSP,2013-01-22 22:20:00,
2013-01-22 14:22:00,56.8,39.4,29.90,SE,135,0.0,0.9,52,0.00,,,0.00,WUHU21623XXSP,2013-01-22 22:22:00,
2013-01-22 14:24:00,56.8,39.4,29.90,SE,135,0.0,1.6,52,0.00,,,0.00,WUHU21623XXSP,2013-01-22 22:24:00,
2013-01-22 14:25:00,56.8,39.9,29.90,SE,135,0.0,1.6,53,0.00,,,0.00,WUHU21623XXSP,2013-01-22 22:25:00,
2013-01-22 14:27:00,56.8,39.9,29.90,SSE,157,0.0,1.6,53,0.00,,,0.00,WUHU21623XXSP,2013-01-22 22:27:00,
2013-01-22 14:29:00,57.0,40.1,29.90,SSE,157,0.7,1.8,53,0.00,,,0.00,WUHU21623XXSP,2013-01-22 22:29:00,
2013-01-22 14:30:00,57.0,40.1,29.90,SSE,157,0.0,1.8,53,0.00,,,0.00,WUHU21623XXSP,2013-01-22 22:30:00,
2013-01-22 14:32:00,56.8,39.9,29.90,SSE,157,0.0,1.8,53,0.00,,,0.00,WUHU21623XXSP,2013-01-22 22:32:00,
2013-01-22 14:34:00,56.8,39.9,29.90,SSE,157,0.0,1.8,53,0.00,,,0.00,WUHU21623XXSP,2013-01-22 22:34:00,
2013-01-22 14:35:00,56.8,39.9,29.90,SSE,157,0.0,1.8,53,0.00,,,0.00,WUHU21623XXSP,2013-01-22 22:35:00,
2013-01-22 14:37:00,56.8,39.9,29.90,ESE,112,0.0,1.8,53,0.00,,,0.00,WUHU21623XXSP,2013-01-22 22:37:00,
2013-01-22 14:39:00,57.0,40.1,29.90,ESE,112,0.0,1.3,53,0.00,,,0.00,WUHU21623XXSP,2013-01-22 22:39:00,
2013-01-22 14:40:00,56.8,39.9,29.90,ESE,112,0.0,1.3,53,0.00,,,0.00,WUHU21623XXSP,2013-01-22 22:40:00,
2013-01-22 14:43:00,57.0,40.1,29.90,SSE,157,0.0,1.3,53,0.00,,,0.00,WUHU21623XXSP,2013-01-22 22:43:00,
2013-01-22 14:45:00,57.0,40.1,29.90,SSE,157,0.0,1.3,53,0.00,,,0.00,WUHU21623XXSP,2013-01-22 22:45:00,
2013-01-22 14:46:00,57.0,40.1,29.90,NE,45,0.0,1.3,53,0.00,,,0.00,WUHU21623XXSP,2013-01-22 22:46:00,
2013-01-22 14:48:00,56.8,39.9,29.90,NE,45,0.0,0.9,53,0.00,,,0.00,WUHU21623XXSP,2013-01-22 22:48:00,
2013-01-22 14:50:00,56.8,39.9,29.90,NE,45,0.0,0.0,53,0.00,,,0.00,WUHU21623XXSP,2013-01-22 22:50:00,
2013-01-22 14:51:00,56.8,39.9,29.90,NE,45,0.0,0.0,53,0.00,,,0.00,WUHU21623XXSP,2013-01-22 22:51:00,
2013-01-22 14:53:00,56.8,39.9,29.90,South,180,0.0,1.6,53,0.00,,,0.00,WUHU21623XXSP,2013-01-22 22:53:00,
2013-01-22 14:55:00,56.8,39.9,29.90,South,180,0.0,1.6,53,0.00,,,0.00,WUHU21623XXSP,2013-01-22 22:55:00,
2013-01-22 14:56:00,56.7,39.2,29.90,South,180,0.0,1.6,52,0.00,,,0.00,WUHU21623XXSP,2013-01-22 22:56:00,
2013-01-22 14:58:00,56.5,39.1,29.90,ESE,112,0.0,1.6,52,0.00,,,0.00,WUHU21623XXSP,2013-01-22 22:58:00,
2013-01-22 15:00:00,56.5,39.5,29.89,ESE,112,0.0,1.6,53,0.00,,,0.00,WUHU21623XXSP,2013-01-22 23:00:00,
2013-01-22 15:01:00,56.3,39.3,29.90,SSW,202,0.0,1.6,53,0.00,,,0.00,WUHU21623XXSP,2013-01-22 23:01:00,
2013-01-22 15:03:00,56.3,39.3,29.89,ESE,112,0.7,0.7,53,0.00,,,0.00,WUHU21623XXSP,2013-01-22 23:03:00,
2013-01-22 15:05:00,56.1,38.7,29.89,SSE,157,0.0,5.1,52,0.00,,,0.00,WUHU21623XXSP,2013-01-22 23:05:00,
2013-01-22 15:06:00,56.1,38.7,29.89,SSE,157,0.0,5.1,52,0.00,,,0.00,WUHU21623XXSP,2013-01-22 23:06:00,
2013-01-22 15:08:00,55.9,38.5,29.89,West,270,0.0,5.1,52,0.00,,,0.00,WUHU21623XXSP,2013-01-22 23:08:00,
2013-01-22 15:10:00,55.8,38.3,29.90,South,180,0.0,5.1,52,0.00,,,0.00,WUHU21623XXSP,2013-01-22 23:10:00,
2013-01-22 15:11:00,55.8,38.3,29.90,South,180,1.3,5.1,52,0.00,,,0.00,WUHU21623XXSP,2013-01-22 23:11:00,
2013-01-22 15:13:00,55.6,38.2,29.90,NE,45,1.6,5.1,52,0.00,,,0.00,WUHU21623XXSP,2013-01-22 23:13:00,
2013-01-22 15:15:00,55.6,38.6,29.90,SSW,202,0.0,2.5,53,0.00,,,0.00,WUHU21623XXSP,2013-01-22 23:15:00,
2013-01-22 15:16:00,55.4,38.4,29.90,South,180,1.6,2.7,53,0.00,,,0.00,WUHU21623XXSP,2013-01-22 23:16:00,
2013-01-22 15:18:00,55.2,38.3,29.90,ESE,112,0.0,2.7,53,0.00,,,0.00,WUHU21623XXSP,2013-01-22 23:18:00,
2013-01-22 15:19:00,55.2,38.3,29.90,ESE,112,1.8,2.7,53,0.00,,,0.00,WUHU21623XXSP,2013-01-22 23:19:00,
2013-01-22 15:20:00,55.2,38.3,29.90,ESE,112,0.0,2.7,53,0.00,,,0.00,WUHU21623XXSP,2013-01-22 23:20:00,
2013-01-22 15:22:00,55.0,38.1,29.89,ESE,112,0.0,2.7,53,0.00,,,0.00,WUHU21623XXSP,2013-01-22 23:22:00,
2013-01-22 15:23:00,55.0,38.6,29.89,ESE,112,0.0,2.7,54,0.00,,,0.00,WUHU21623XXSP,2013-01-22 23:23:00,
2013-01-22 15:24:00,55.0,38.6,29.89,ESE,112,0.0,2.7,54,0.00,,,0.00,WUHU21623XXSP,2013-01-22 23:24:00,
2013-01-22 15:26:00,55.0,38.6,29.89,SSE,157,0.0,2.7,54,0.00,,,0.00,WUHU21623XXSP,2013-01-22 23:26:00,
2013-01-22 15:27:00,54.9,38.4,29.90,SSE,157,0.0,2.0,54,0.00,,,0.00,WUHU21623XXSP,2013-01-22 23:27:00,
2013-01-22 15:28:00,54.9,38.4,29.89,SSE,157,0.0,1.8,54,0.00,,,0.00,WUHU21623XXSP,2013-01-22 23:28:00,
2013-01-22 15:29:00,54.9,38.4,29.89,SSE,157,0.0,1.1,54,0.00,,,0.00,WUHU21623XXSP,2013-01-22 23:29:00,
2013-01-22 15:32:00,54.7,38.3,29.90,SSE,157,0.0,1.1,54,0.00,,,0.00,WUHU21623XXSP,2013-01-22 23:32:00,
2013-01-22 15:33:00,54.7,38.7,29.89,ESE,112,0.0,1.8,55,0.00,,,0.00,WUHU21623XXSP,2013-01-22 23:33:00,
2013-01-22 15:34:00,54.7,38.7,29.89,ESE,112,0.0,1.8,55,0.00,,,0.00,WUHU21623XXSP,2013-01-22 23:34:00,
2013-01-22 15:37:00,54.7,38.7,29.89,SSE,157,0.0,2.0,55,0.00,,,0.00,WUHU21623XXSP,2013-01-22 23:37:00,
2013-01-22 15:38:00,54.7,38.7,29.89,WSW,247,0.0,2.0,55,0.00,,,0.00,WUHU21623XXSP,2013-01-22 23:38:00,
2013-01-22 15:39:00,54.7,38.7,29.89,North,0,1.1,2.0,55,0.00,,,0.00,WUHU21623XXSP,2013-01-22 23:39:00,
2013-01-22 15:42:00,54.5,38.6,29.89,SSE,157,0.0,2.0,55,0.00,,,0.00,WUHU21623XXSP,2013-01-22 23:42:00,
2013-01-22 15:44:00,54.5,38.6,29.89,SSE,157,0.0,2.0,55,0.00,,,0.00,WUHU21623XXSP,2013-01-22 23:44:00,
2013-01-22 15:45:00,54.7,38.7,29.89,South,180,0.7,3.8,55,0.00,,,0.00,WUHU21623XXSP,2013-01-22 23:45:00,
2013-01-22 15:47:00,54.7,38.7,29.88,South,180,0.0,3.8,55,0.00,,,0.00,WUHU21623XXSP,2013-01-22 23:47:00,
2013-01-22 15:49:00,54.7,38.7,29.88,NNE,22,0.0,3.8,55,0.00,,,0.00,WUHU21623XXSP,2013-01-22 23:49:00,
2013-01-22 15:50:00,54.7,38.7,29.88,NNE,22,0.0,3.8,55,0.00,,,0.00,WUHU21623XXSP,2013-01-22 23:50:00,
2013-01-22 15:52:00,54.7,38.7,29.88,SSE,157,0.0,3.8,55,0.00,,,0.00,WUHU21623XXSP,2013-01-22 23:52:00,
2013-01-22 15:53:00,54.7,38.7,29.88,SSE,157,0.0,3.8,55,0.00,,,0.00,WUHU21623XXSP,2013-01-22 23:53:00,
2013-01-22 15:54:00,54.7,38.7,29.88,SSE,157,0.0,3.8,55,0.00,,,0.00,WUHU21623XXSP,2013-01-22 23:54:00,
2013-01-22 15:55:00,54.9,38.9,29.88,SSE,157,0.0,3.4,55,0.00,,,0.00,WUHU21623XXSP,2013-01-22 23:55:00,
2013-01-22 15:57:00,54.9,38.9,29.88,SE,135,0.0,1.6,55,0.00,,,0.00,WUHU21623XXSP,2013-01-22 23:57:00,
2013-01-22 15:58:00,55.0,39.1,29.88,SE,135,0.0,1.6,55,0.00,,,0.00,WUHU21623XXSP,2013-01-22 23:58:00,
2013-01-22 15:59:00,54.9,38.9,29.88,SE,135,0.0,1.6,55,0.00,,,0.00,WUHU21623XXSP,2013-01-22 23:59:00,
2013-01-22 16:00:00,54.9,38.9,29.88,SE,135,0.0,1.6,55,0.00,,,0.00,WUHU21623XXSP,2013-01-23 00:00:00,
2013-01-22 16:03:00,55.0,39.1,29.88,SE,135,0.0,1.6,55,0.00,,,0.00,WUHU21623XXSP,2013-01-23 00:03:00,
2013-01-22 16:04:00,55.0,39.1,29.88,SSE,157,0.0,0.0,55,0.00,,,0.00,WUHU21623XXSP,2013-01-23 00:04:00,
2013-01-22 16:05:00,55.0,39.1,29.88,SSE,157,0.0,1.1,55,0.00,,,0.00,WUHU21623XXSP,2013-01-23 00:05:00,
2013-01-22 16:08:00,55.0,39.1,29.88,South,180,0.0,1.1,55,0.00,,,0.00,WUHU21623XXSP,2013-01-23 00:08:00,
2013-01-22 16:09:00,55.0,39.1,29.88,South,180,0.0,1.1,55,0.00,,,0.00,WUHU21623XXSP,2013-01-23 00:09:00,
2013-01-22 16:11:00,55.0,39.5,29.88,South,180,0.0,1.1,56,0.00,,,0.00,WUHU21623XXSP,2013-01-23 00:11:00,
2013-01-22 16:13:00,54.9,39.4,29.88,South,180,0.0,1.1,56,0.00,,,0.00,WUHU21623XXSP,2013-01-23 00:13:00,
2013-01-22 16:15:00,54.9,39.4,29.87,South,180,0.0,1.1,56,0.00,,,0.00,WUHU21623XXSP,2013-01-23 00:15:00,
2013-01-22 16:16:00,54.9,39.4,29.87,South,180,1.1,1.1,56,0.00,,,0.00,WUHU21623XXSP,2013-01-23 00:16:00,
2013-01-22 16:18:00,54.7,39.2,29.87,South,180,0.0,2.9,56,0.00,,,0.00,WUHU21623XXSP,2013-01-23 00:18:00,
2013-01-22 16:20:00,54.5,39.0,29.87,South,180,0.0,2.9,56,0.00,,,0.00,WUHU21623XXSP,2013-01-23 00:20:00,
2013-01-22 16:21:00,54.5,39.5,29.87,South,180,0.0,2.9,57,0.00,,,0.00,WUHU21623XXSP,2013-01-23 00:21:00,
2013-01-22 16:23:00,54.3,39.3,29.87,South,180,0.0,2.9,57,0.00,,,0.00,WUHU21623XXSP,2013-01-23 00:23:00,
2013-01-22 16:25:00,54.3,39.3,29.87,South,180,0.0,2.9,57,0.00,,,0.00,WUHU21623XXSP,2013-01-23 00:25:00,
2013-01-22 16:27:00,54.3,39.3,29.87,South,180,0.0,1.1,57,0.00,,,0.00,WUHU21623XXSP,2013-01-23 00:27:00,
2013-01-22 16:28:00,54.1,39.2,29.87,South,180,0.0,0.0,57,0.00,,,0.00,WUHU21623XXSP,2013-01-23 00:28:00,
2013-01-22 16:29:00,54.1,39.2,29.87,South,180,0.0,0.0,57,0.00,,,0.00,WUHU21623XXSP,2013-01-23 00:29:00,
2013-01-22 16:31:00,54.1,39.2,29.88,South,180,0.0,0.0,57,0.00,,,0.00,WUHU21623XXSP,2013-01-23 00:31:00,
2013-01-22 16:33:00,54.0,39.5,29.88,South,180,0.0,0.0,58,0.00,,,0.00,WUHU21623XXSP,2013-01-23 00:33:00,
2013-01-22 16:34:00,54.0,39.5,29.88,South,180,0.0,0.0,58,0.00,,,0.00,WUHU21623XXSP,2013-01-23 00:34:00,
2013-01-22 16:36:00,53.8,39.3,29.87,South,180,0.0,0.0,58,0.00,,,0.00,WUHU21623XXSP,2013-01-23 00:36:00,
2013-01-22 16:38:00,53.8,39.3,29.87,South,180,0.0,0.0,58,0.00,,,0.00,WUHU21623XXSP,2013-01-23 00:38:00,
2013-01-22 16:39:00,53.6,39.2,29.87,South,180,0.0,0.0,58,0.00,,,0.00,WUHU21623XXSP,2013-01-23 00:39:00,
2013-01-22 16:42:00,53.4,39.0,29.87,South,180,0.0,0.0,58,0.00,,,0.00,WUHU21623XXSP,2013-01-23 00:42:00,
2013-01-22 16:43:00,53.4,39.0,29.87,South,180,0.0,0.0,58,0.00,,,0.00,WUHU21623XXSP,2013-01-23 00:43:00,
2013-01-22 16:44:00,53.4,39.0,29.88,South,180,0.0,0.0,58,0.00,,,0.00,WUHU21623XXSP,2013-01-23 00:44:00,
2013-01-22 16:47:00,53.2,38.8,29.88,South,180,0.0,0.0,58,0.00,,,0.00,WUHU21623XXSP,2013-01-23 00:47:00,
2013-01-22 16:48:00,53.2,38.8,29.88,South,180,0.0,0.0,58,0.00,,,0.00,WUHU21623XXSP,2013-01-23 00:48:00,
2013-01-22 16:49:00,53.1,38.6,29.88,South,180,0.0,0.0,58,0.00,,,0.00,WUHU21623XXSP,2013-01-23 00:49:00,
2013-01-22 16:52:00,52.9,38.4,29.88,South,180,0.0,0.0,58,0.00,,,0.00,WUHU21623XXSP,2013-01-23 00:52:00,
2013-01-22 16:53:00,52.9,38.9,29.88,South,180,0.0,0.0,59,0.00,,,0.00,WUHU21623XXSP,2013-01-23 00:53:00,
2013-01-22 16:54:00,52.7,38.7,29.88,South,180,0.0,0.0,59,0.00,,,0.00,WUHU21623XXSP,2013-01-23 00:54:00,
2013-01-22 16:55:00,52.7,38.7,29.88,South,180,0.0,0.0,59,0.00,,,0.00,WUHU21623XXSP,2013-01-23 00:55:00,
2013-01-22 16:57:00,52.5,38.6,29.88,SW,225,0.7,1.8,59,0.00,,,0.00,WUHU21623XXSP,2013-01-23 00:57:00,
2013-01-22 16:58:00,52.5,38.6,29.88,SW,225,0.0,1.8,59,0.00,,,0.00,WUHU21623XXSP,2013-01-23 00:58:00,
2013-01-22 16:59:00,52.5,38.6,29.88,WSW,247,0.0,1.8,59,0.00,,,0.00,WUHU21623XXSP,2013-01-23 00:59:00,
2013-01-22 17:00:00,52.3,38.4,29.88,WSW,247,1.1,1.8,59,0.00,,,0.00,WUHU21623XXSP,2013-01-23 01:00:00,
2013-01-22 17:03:00,52.3,38.4,29.88,WSW,247,0.0,1.8,59,0.00,,,0.00,WUHU21623XXSP,2013-01-23 01:03:00,
2013-01-22 17:04:00,52.2,38.2,29.88,WSW,247,0.0,1.8,59,0.00,,,0.00,WUHU21623XXSP,2013-01-23 01:04:00,
2013-01-22 17:05:00,52.2,38.2,29.88,WSW,247,0.0,1.8,59,0.00,,,0.00,WUHU21623XXSP,2013-01-23 01:05:00,
2013-01-22 17:08:00,52.0,38.5,29.88,SSE,157,0.0,1.1,60,0.00,,,0.00,WUHU21623XXSP,2013-01-23 01:08:00,
2013-01-22 17:09:00,51.8,38.3,29.88,SSE,157,0.0,1.1,60,0.00,,,0.00,WUHU21623XXSP,2013-01-23 01:09:00,
2013-01-22 17:10:00,51.6,38.1,29.88,SE,135,0.0,0.0,60,0.00,,,0.00,WUHU21623XXSP,2013-01-23 01:10:00,
2013-01-22 17:13:00,51.6,38.1,29.88,SE,135,0.0,0.0,60,0.00,,,0.00,WUHU21623XXSP,2013-01-23 01:13:00,
2013-01-22 17:14:00,51.6,38.1,29.88,ESE,112,0.0,0.0,60,0.00,,,0.00,WUHU21623XXSP,2013-01-23 01:14:00,
2013-01-22 17:15:00,51.6,38.1,29.87,ESE,112,0.0,0.0,60,0.00,,,0.00,WUHU21623XXSP,2013-01-23 01:15:00,
2013-01-22 17:18:00,51.4,38.0,29.88,ESE,112,0.0,0.0,60,0.00,,,0.00,WUHU21623XXSP,2013-01-23 01:18:00,
2013-01-22 17:19:00,51.3,37.8,29.88,ESE,112,0.0,0.0,60,0.00,,,0.00,WUHU21623XXSP,2013-01-23 01:19:00,
2013-01-22 17:20:00,51.3,38.2,29.88,ESE,112,0.0,0.0,61,0.00,,,0.00,WUHU21623XXSP,2013-01-23 01:20:00,
2013-01-22 17:23:00,50.9,37.9,29.88,ESE,112,0.0,0.0,61,0.00,,,0.00,WUHU21623XXSP,2013-01-23 01:23:00,
2013-01-22 17:24:00,50.9,37.9,29.88,ESE,112,0.0,0.0,61,0.00,,,0.00,WUHU21623XXSP,2013-01-23 01:24:00,
2013-01-22 17:25:00,50.7,37.7,29.88,ESE,112,0.0,0.0,61,0.00,,,0.00,WUHU21623XXSP,2013-01-23 01:25:00,
2013-01-22 17:28:00,50.7,37.7,29.88,ESE,112,0.0,0.0,61,0.00,,,0.00,WUHU21623XXSP,2013-01-23 01:28:00,
2013-01-22 17:29:00,50.5,37.6,29.88,ESE,112,0.0,0.0,61,0.00,,,0.00,WUHU21623XXSP,2013-01-23 01:29:00,
2013-01-22 17:30:00,50.5,37.6,29.88,ESE,112,0.0,0.0,61,0.00,,,0.00,WUHU21623XXSP,2013-01-23 01:30:00,
2013-01-22 17:31:00,50.5,37.6,29.88,ESE,112,0.0,0.0,61,0.00,,,0.00,WUHU21623XXSP,2013-01-23 01:31:00,
2013-01-22 17:33:00,50.5,37.6,29.88,ESE,112,0.0,0.0,61,0.00,,,0.00,WUHU21623XXSP,2013-01-23 01:33:00,
2013-01-22 17:34:00,50.4,37.4,29.88,ESE,112,0.0,0.0,61,0.00,,,0.00,WUHU21623XXSP,2013-01-23 01:34:00,
2013-01-22 17:35:00,50.4,37.4,29.88,ESE,112,0.0,0.0,61,0.00,,,0.00,WUHU21623XXSP,2013-01-23 01:35:00,
2013-01-22 17:36:00,50.4,37.4,29.88,ESE,112,0.0,0.0,61,0.00,,,0.00,WUHU21623XXSP,2013-01-23 01:36:00,
2013-01-22 17:38:00,50.2,37.6,29.88,ESE,112,0.0,0.0,62,0.00,,,0.00,WUHU21623XXSP,2013-01-23 01:38:00,
2013-01-22 17:40:00,50.2,37.6,29.88,ESE,112,0.0,0.0,62,0.00,,,0.00,WUHU21623XXSP,2013-01-23 01:40:00,
2013-01-22 17:42:00,49.8,37.3,29.88,ESE,112,0.0,0.0,62,0.00,,,0.00,WUHU21623XXSP,2013-01-23 01:42:00,
2013-01-22 17:43:00,49.8,37.3,29.87,ESE,112,0.0,0.0,62,0.00,,,0.00,WUHU21623XXSP,2013-01-23 01:43:00,
2013-01-22 17:45:00,49.8,37.7,29.87,ESE,112,0.0,0.0,63,0.00,,,0.00,WUHU21623XXSP,2013-01-23 01:45:00,
2013-01-22 17:47:00,49.6,37.5,29.87,ESE,112,0.0,0.0,63,0.00,,,0.00,WUHU21623XXSP,2013-01-23 01:47:00,
2013-01-22 17:48:00,49.6,37.5,29.87,ESE,112,0.0,0.0,63,0.00,,,0.00,WUHU21623XXSP,2013-01-23 01:48:00,
2013-01-22 17:50:00,49.3,37.2,29.87,ESE,112,0.0,0.0,63,0.00,,,0.00,WUHU21623XXSP,2013-01-23 01:50:00,
2013-01-22 17:52:00,49.3,37.2,29.87,ESE,112,0.0,0.0,63,0.00,,,0.00,WUHU21623XXSP,2013-01-23 01:52:00,
2013-01-22 17:53:00,49.3,37.6,29.87,ESE,112,0.0,0.0,64,0.00,,,0.00,WUHU21623XXSP,2013-01-23 01:53:00,
2013-01-22 17:55:00,49.1,37.4,29.87,ESE,112,0.0,0.0,64,0.00,,,0.00,WUHU21623XXSP,2013-01-23 01:55:00,
2013-01-22 17:57:00,49.1,37.4,29.87,ESE,112,0.0,0.0,64,0.00,,,0.00,WUHU21623XXSP,2013-01-23 01:57:00,
2013-01-22 17:58:00,49.1,37.4,29.87,ESE,112,0.0,0.0,64,0.00,,,0.00,WUHU21623XXSP,2013-01-23 01:58:00,
2013-01-22 18:00:00,48.9,37.2,29.87,ESE,112,0.0,0.0,64,0.00,,,0.00,WUHU21623XXSP,2013-01-23 02:00:00,
2013-01-22 18:02:00,48.9,37.2,29.87,ESE,112,0.0,0.0,64,0.00,,,0.00,WUHU21623XXSP,2013-01-23 02:02:00,
2013-01-22 18:03:00,48.9,37.2,29.87,ESE,112,0.0,0.0,64,0.00,,,0.00,WUHU21623XXSP,2013-01-23 02:03:00,
2013-01-22 18:04:00,48.7,37.2,29.87,ESE,112,0.0,0.0,64,0.00,,,0.00,WUHU21623XXSP,2013-01-23 02:04:00,
2013-01-22 18:05:00,48.7,37.1,29.87,ESE,112,0.0,0.0,64,0.00,,,0.00,WUHU21623XXSP,2013-01-23 02:05:00,
2013-01-22 18:07:00,48.7,37.1,29.87,ESE,112,0.0,0.0,64,0.00,,,0.00,WUHU21623XXSP,2013-01-23 02:07:00,
2013-01-22 18:08:00,48.7,37.1,29.87,ESE,112,0.0,0.0,64,0.00,,,0.00,WUHU21623XXSP,2013-01-23 02:08:00,
2013-01-22 18:09:00,48.7,37.5,29.87,ESE,112,0.0,0.0,65,0.00,,,0.00,WUHU21623XXSP,2013-01-23 02:09:00,
2013-01-22 18:10:00,48.6,37.3,29.87,ESE,112,0.0,0.0,65,0.00,,,0.00,WUHU21623XXSP,2013-01-23 02:10:00,
2013-01-22 18:12:00,48.6,37.3,29.87,SSE,157,0.0,0.0,65,0.00,,,0.00,WUHU21623XXSP,2013-01-23 02:12:00,
2013-01-22 18:13:00,48.6,37.3,29.87,SSE,157,0.0,0.0,65,0.00,,,0.00,WUHU21623XXSP,2013-01-23 02:13:00,
2013-01-22 18:14:00,48.4,37.1,29.87,SSE,157,0.0,0.0,65,0.00,,,0.00,WUHU21623XXSP,2013-01-23 02:14:00,
2013-01-22 18:15:00,48.4,37.1,29.87,SSE,157,0.0,0.0,65,0.00,,,0.00,WUHU21623XXSP,2013-01-23 02:15:00,
2013-01-22 18:17:00,48.4,37.1,29.87,SSE,157,0.0,0.0,65,0.00,,,0.00,WUHU21623XXSP,2013-01-23 02:17:00,
2013-01-22 18:19:00,48.2,37.0,29.87,SSE,157,0.0,0.0,65,0.00,,,0.00,WUHU21623XXSP,2013-01-23 02:19:00,
2013-01-22 18:20:00,48.2,37.0,29.87,SSE,157,0.0,0.0,65,0.00,,,0.00,WUHU21623XXSP,2013-01-23 02:20:00,
2013-01-22 18:23:00,48.0,37.1,29.87,SSE,157,0.0,0.0,66,0.00,,,0.00,WUHU21623XXSP,2013-01-23 02:23:00,
2013-01-22 18:24:00,48.0,37.1,29.86,SSE,157,0.0,0.0,66,0.00,,,0.00,WUHU21623XXSP,2013-01-23 02:24:00,
2013-01-22 18:25:00,48.0,37.1,29.86,SSE,157,0.0,0.0,66,0.00,,,0.00,WUHU21623XXSP,2013-01-23 02:25:00,
2013-01-22 18:28:00,48.0,37.1,29.87,SSE,157,0.0,0.0,66,0.00,,,0.00,WUHU21623XXSP,2013-01-23 02:28:00,
2013-01-22 18:30:00,48.0,37.1,29.87,SSE,157,0.0,0.0,66,0.00,,,0.00,WUHU21623XXSP,2013-01-23 02:30:00,
2013-01-22 18:33:00,47.8,37.0,29.87,SSE,157,0.0,0.0,66,0.00,,,0.00,WUHU21623XXSP,2013-01-23 02:33:00,
2013-01-22 18:35:00,47.8,37.4,29.87,SE,135,0.0,0.0,67,0.00,,,0.00,WUHU21623XXSP,2013-01-23 02:35:00,
2013-01-22 18:36:00,47.8,37.4,29.87,SE,135,0.0,0.0,67,0.00,,,0.00,WUHU21623XXSP,2013-01-23 02:36:00,
2013-01-22 18:38:00,47.8,37.4,29.87,SSE,157,0.0,0.0,67,0.00,,,0.00,WUHU21623XXSP,2013-01-23 02:38:00,
2013-01-22 18:40:00,47.7,37.2,29.87,SSE,157,0.0,0.0,67,0.00,,,0.00,WUHU21623XXSP,2013-01-23 02:40:00,
2013-01-22 18:41:00,47.7,37.2,29.87,SSE,157,0.0,0.0,67,0.00,,,0.00,WUHU21623XXSP,2013-01-23 02:41:00,
2013-01-22 18:43:00,47.5,37.0,29.87,SSE,157,0.0,0.0,67,0.00,,,0.00,WUHU21623XXSP,2013-01-23 02:43:00,
2013-01-22 18:45:00,47.5,37.0,29.87,SSE,157,0.0,0.0,67,0.00,,,0.00,WUHU21623XXSP,2013-01-23 02:45:00,
2013-01-22 18:47:00,47.5,37.0,29.87,SSE,157,0.0,0.0,67,0.00,,,0.00,WUHU21623XXSP,2013-01-23 02:47:00,
2013-01-22 18:48:00,47.5,37.0,29.87,SSE,157,0.0,0.0,67,0.00,,,0.00,WUHU21623XXSP,2013-01-23 02:48:00,
2013-01-22 18:50:00,47.3,36.9,29.87,SSE,157,0.0,0.0,67,0.00,,,0.00,WUHU21623XXSP,2013-01-23 02:50:00,
2013-01-22 18:52:00,47.3,36.9,29.87,SSE,157,0.0,0.0,67,0.00,,,0.00,WUHU21623XXSP,2013-01-23 02:52:00,
2013-01-22 18:53:00,47.3,36.9,29.87,SSE,157,0.0,0.0,67,0.00,,,0.00,WUHU21623XXSP,2013-01-23 02:53:00,
2013-01-22 18:56:00,47.3,36.9,29.87,SSE,157,0.0,0.0,67,0.00,,,0.00,WUHU21623XXSP,2013-01-23 02:56:00,
2013-01-22 18:57:00,47.1,36.7,29.87,SSE,157,0.0,0.0,67,0.00,,,0.00,WUHU21623XXSP,2013-01-23 02:57:00,
2013-01-22 18:58:00,47.1,36.7,29.87,SSE,157,0.0,0.0,67,0.00,,,0.00,WUHU21623XXSP,2013-01-23 02:58:00,
2013-01-22 19:01:00,47.1,37.1,29.87,SSE,157,0.0,0.0,68,0.00,,,0.00,WUHU21623XXSP,2013-01-23 03:01:00,
2013-01-22 19:02:00,47.1,37.1,29.87,SSE,157,0.0,0.0,68,0.00,,,0.00,WUHU21623XXSP,2013-01-23 03:02:00,
2013-01-22 19:03:00,47.1,37.1,29.87,SSE,157,0.0,0.0,68,0.00,,,0.00,WUHU21623XXSP,2013-01-23 03:03:00,
2013-01-22 19:07:00,46.9,36.9,29.87,SE,135,0.0,0.0,68,0.00,,,0.00,WUHU21623XXSP,2013-01-23 03:07:00,
2013-01-22 19:08:00,46.9,36.9,29.87,SE,135,0.0,0.0,68,0.00,,,0.00,WUHU21623XXSP,2013-01-23 03:08:00,
2013-01-22 19:12:00,46.9,36.9,29.87,SE,135,0.0,0.0,68,0.00,,,0.00,WUHU21623XXSP,2013-01-23 03:12:00,
2013-01-22 19:14:00,46.8,37.1,29.87,SE,135,0.0,0.0,69,0.00,,,0.00,WUHU21623XXSP,2013-01-23 03:14:00,
2013-01-22 19:17:00,46.8,37.1,29.87,SSE,157,0.0,0.0,69,0.00,,,0.00,WUHU21623XXSP,2013-01-23 03:17:00,
2013-01-22 19:19:00,46.8,37.1,29.87,South,180,0.0,0.9,69,0.00,,,0.00,WUHU21623XXSP,2013-01-23 03:19:00,
2013-01-22 19:22:00,46.6,37.0,29.87,South,180,0.0,0.9,69,0.00,,,0.00,WUHU21623XXSP,2013-01-23 03:22:00,
2013-01-22 19:23:00,46.6,37.0,29.87,South,180,0.0,0.9,69,0.00,,,0.00,WUHU21623XXSP,2013-01-23 03:23:00,
2013-01-22 19:24:00,46.6,37.0,29.87,South,180,0.0,0.9,69,0.00,,,0.00,WUHU21623XXSP,2013-01-23 03:24:00,
2013-01-22 19:27:00,46.6,37.0,29.87,South,180,0.0,0.9,69,0.00,,,0.00,WUHU21623XXSP,2013-01-23 03:27:00,
2013-01-22 19:28:00,46.6,37.0,29.87,South,180,0.0,0.9,69,0.00,,,0.00,WUHU21623XXSP,2013-01-23 03:28:00,
2013-01-22 19:29:00,46.6,37.0,29.87,South,180,0.0,0.0,69,0.00,,,0.00,WUHU21623XXSP,2013-01-23 03:29:00,
2013-01-22 19:33:00,46.6,37.0,29.87,South,180,0.0,0.0,69,0.00,,,0.00,WUHU21623XXSP,2013-01-23 03:33:00,
2013-01-22 19:34:00,46.4,36.8,29.87,South,180,0.0,0.0,69,0.00,,,0.00,WUHU21623XXSP,2013-01-23 03:34:00,
2013-01-22 19:38:00,46.4,36.8,29.87,South,180,0.0,0.0,69,0.00,,,0.00,WUHU21623XXSP,2013-01-23 03:38:00,
2013-01-22 19:39:00,46.2,36.6,29.87,ESE,112,0.0,0.0,69,0.00,,,0.00,WUHU21623XXSP,2013-01-23 03:39:00,
2013-01-22 19:43:00,46.2,36.6,29.88,ESE,112,0.0,0.0,69,0.00,,,0.00,WUHU21623XXSP,2013-01-23 03:43:00,
2013-01-22 19:44:00,46.2,36.6,29.88,ESE,112,0.0,0.0,69,0.00,,,0.00,WUHU21623XXSP,2013-01-23 03:44:00,
2013-01-22 19:48:00,46.2,37.0,29.87,ESE,112,0.0,0.9,70,0.00,,,0.00,WUHU21623XXSP,2013-01-23 03:48:00,
2013-01-22 19:49:00,46.2,37.0,29.87,ESE,112,0.0,0.9,70,0.00,,,0.00,WUHU21623XXSP,2013-01-23 03:49:00,
2013-01-22 19:50:00,46.2,37.0,29.87,ESE,112,0.0,0.9,70,0.00,,,0.00,WUHU21623XXSP,2013-01-23 03:50:00,
2013-01-22 19:53:00,46.2,37.0,29.87,ESE,112,0.0,0.9,70,0.00,,,0.00,WUHU21623XXSP,2013-01-23 03:53:00,
2013-01-22 19:54:00,46.2,37.0,29.87,ESE,112,0.0,0.9,70,0.00,,,0.00,WUHU21623XXSP,2013-01-23 03:54:00,
2013-01-22 19:55:00,46.2,37.0,29.87,ESE,112,0.0,0.9,70,0.00,,,0.00,WUHU21623XXSP,2013-01-23 03:55:00,
2013-01-22 19:59:00,46.2,37.0,29.87,ESE,112,0.0,0.0,70,0.00,,,0.00,WUHU21623XXSP,2013-01-23 03:59:00,
2013-01-22 20:00:00,46.2,37.0,29.87,ESE,112,0.0,0.0,70,0.00,,,0.00,WUHU21623XXSP,2013-01-23 04:00:00,
2013-01-22 20:04:00,46.0,36.9,29.87,ESE,112,0.0,0.0,70,0.00,,,0.00,WUHU21623XXSP,2013-01-23 04:04:00,
2013-01-22 20:05:00,46.0,36.9,29.87,ESE,112,0.0,0.0,70,0.00,,,0.00,WUHU21623XXSP,2013-01-23 04:05:00,
2013-01-22 20:09:00,46.0,36.9,29.87,ESE,112,0.0,0.0,70,0.00,,,0.00,WUHU21623XXSP,2013-01-23 04:09:00,
2013-01-22 20:10:00,46.0,36.9,29.87,ESE,112,0.0,0.0,70,0.00,,,0.00,WUHU21623XXSP,2013-01-23 04:10:00,
2013-01-22 20:14:00,45.9,36.7,29.87,ESE,112,0.0,0.0,70,0.00,,,0.00,WUHU21623XXSP,2013-01-23 04:14:00,
2013-01-22 20:15:00,45.7,36.5,29.87,ESE,112,0.0,0.0,70,0.00,,,0.00,WUHU21623XXSP,2013-01-23 04:15:00,
2013-01-22 20:19:00,45.7,36.8,29.86,ESE,112,0.0,0.0,71,0.00,,,0.00,WUHU21623XXSP,2013-01-23 04:19:00,
2013-01-22 20:20:00,45.7,36.8,29.87,ESE,112,0.0,0.0,71,0.00,,,0.00,WUHU21623XXSP,2013-01-23 04:20:00,
2013-01-22 20:24:00,45.7,36.8,29.87,ESE,112,0.0,0.0,71,0.00,,,0.00,WUHU21623XXSP,2013-01-23 04:24:00,
2013-01-22 20:25:00,45.7,36.8,29.87,ESE,112,0.0,0.0,71,0.00,,,0.00,WUHU21623XXSP,2013-01-23 04:25:00,
2013-01-22 20:26:00,45.7,36.8,29.86,ESE,112,0.0,0.0,71,0.00,,,0.00,WUHU21623XXSP,2013-01-23 04:26:00,
2013-01-22 20:29:00,45.7,36.8,29.87,ESE,112,0.0,0.0,71,0.00,,,0.00,WUHU21623XXSP,2013-01-23 04:29:00,
2013-01-22 20:30:00,45.7,36.8,29.87,ESE,112,0.0,0.0,71,0.00,,,0.00,WUHU21623XXSP,2013-01-23 04:30:00,
2013-01-22 20:32:00,45.7,36.8,29.87,ESE,112,0.0,0.0,71,0.00,,,0.00,WUHU21623XXSP,2013-01-23 04:32:00,
2013-01-22 20:35:00,45.5,36.7,29.87,ESE,112,0.0,0.0,71,0.00,,,0.00,WUHU21623XXSP,2013-01-23 04:35:00,
2013-01-22 20:37:00,45.5,36.7,29.87,ESE,112,0.0,0.0,71,0.00,,,0.00,WUHU21623XXSP,2013-01-23 04:37:00,
2013-01-22 20:40:00,45.5,36.7,29.87,East,90,0.0,1.1,71,0.00,,,0.00,WUHU21623XXSP,2013-01-23 04:40:00,
2013-01-22 20:41:00,45.5,36.7,29.87,East,90,0.0,1.1,71,0.00,,,0.00,WUHU21623XXSP,2013-01-23 04:41:00,
2013-01-22 20:43:00,45.5,36.7,29.86,ESE,112,0.0,1.6,71,0.00,,,0.00,WUHU21623XXSP,2013-01-23 04:43:00,
2013-01-22 20:45:00,45.3,36.5,29.87,ESE,112,0.0,1.6,71,0.00,,,0.00,WUHU21623XXSP,2013-01-23 04:45:00,
2013-01-22 20:46:00,45.3,36.5,29.87,SSE,157,0.0,1.6,71,0.00,,,0.00,WUHU21623XXSP,2013-01-23 04:46:00,
2013-01-22 20:48:00,45.3,36.5,29.87,SSE,157,0.0,1.6,71,0.00,,,0.00,WUHU21623XXSP,2013-01-23 04:48:00,
2013-01-22 20:50:00,45.3,36.5,29.87,South,180,0.0,1.6,71,0.00,,,0.00,WUHU21623XXSP,2013-01-23 04:50:00,
2013-01-22 20:51:00,45.3,36.5,29.87,South,180,0.0,1.6,71,0.00,,,0.00,WUHU21623XXSP,2013-01-23 04:51:00,
2013-01-22 20:53:00,45.3,36.5,29.87,South,180,0.0,1.3,71,0.00,,,0.00,WUHU21623XXSP,2013-01-23 04:53:00,
2013-01-22 20:55:00,45.3,36.5,29.88,SSE,157,0.0,1.3,71,0.00,,,0.00,WUHU21623XXSP,2013-01-23 04:55:00,
2013-01-22 20:56:00,45.3,36.5,29.87,ESE,112,1.1,1.3,71,0.00,,,0.00,WUHU21623XXSP,2013-01-23 04:56:00,
2013-01-22 20:58:00,45.3,36.5,29.87,ESE,112,0.0,1.1,71,0.00,,,0.00,WUHU21623XXSP,2013-01-23 04:58:00,
2013-01-22 21:02:00,45.3,36.5,29.87,ESE,112,0.0,1.1,71,0.00,,,0.00,WUHU21623XXSP,2013-01-23 05:02:00,
2013-01-22 21:03:00,45.3,36.5,29.87,ESE,112,0.0,1.1,71,0.00,,,0.00,WUHU21623XXSP,2013-01-23 05:03:00,
2013-01-22 21:04:00,45.3,36.5,29.87,ESE,112,0.0,1.1,71,0.00,,,0.00,WUHU21623XXSP,2013-01-23 05:04:00,
2013-01-22 21:07:00,45.1,36.3,29.87,ESE,112,0.0,0.0,71,0.00,,,0.00,WUHU21623XXSP,2013-01-23 05:07:00,
2013-01-22 21:08:00,45.1,36.3,29.86,ESE,112,0.0,0.0,71,0.00,,,0.00,WUHU21623XXSP,2013-01-23 05:08:00,
2013-01-22 21:09:00,45.1,36.3,29.86,SE,135,0.0,1.8,71,0.00,,,0.00,WUHU21623XXSP,2013-01-23 05:09:00,
2013-01-22 21:13:00,45.3,36.5,29.86,South,180,0.0,1.8,71,0.00,,,0.00,WUHU21623XXSP,2013-01-23 05:13:00,
2013-01-22 21:14:00,45.1,36.3,29.86,SSE,157,0.9,1.8,71,0.00,,,0.00,WUHU21623XXSP,2013-01-23 05:14:00,
2013-01-22 21:18:00,45.1,36.3,29.86,SSE,157,0.0,1.8,71,0.00,,,0.00,WUHU21623XXSP,2013-01-23 05:18:00,
2013-01-22 21:19:00,45.1,36.3,29.86,SE,135,0.0,1.6,71,0.00,,,0.00,WUHU21623XXSP,2013-01-23 05:19:00,
2013-01-22 21:23:00,45.1,36.3,29.86,ESE,112,0.0,1.6,71,0.00,,,0.00,WUHU21623XXSP,2013-01-23 05:23:00,
2013-01-22 21:25:00,45.1,36.3,29.86,SE,135,0.0,1.6,71,0.00,,,0.00,WUHU21623XXSP,2013-01-23 05:25:00,
2013-01-22 21:28:00,45.1,36.3,29.86,SE,135,0.0,1.1,71,0.00,,,0.00,WUHU21623XXSP,2013-01-23 05:28:00,
2013-01-22 21:30:00,45.1,36.3,29.86,South,180,0.0,1.1,71,0.00,,,0.00,WUHU21623XXSP,2013-01-23 05:30:00,
2013-01-22 21:33:00,45.3,36.5,29.86,ESE,112,0.0,3.4,71,0.00,,,0.00,WUHU21623XXSP,2013-01-23 05:33:00,
2013-01-22 21:35:00,45.1,36.3,29.86,SE,135,0.0,3.4,71,0.00,,,0.00,WUHU21623XXSP,2013-01-23 05:35:00,
2013-01-22 21:38:00,45.1,36.3,29.86,South,180,0.0,3.8,71,0.00,,,0.00,WUHU21623XXSP,2013-01-23 05:38:00,
2013-01-22 21:40:00,45.3,36.5,29.86,South,180,0.0,3.8,71,0.00,,,0.00,WUHU21623XXSP,2013-01-23 05:40:00,
2013-01-22 21:43:00,45.1,36.0,29.86,ESE,112,0.0,3.8,70,0.00,,,0.00,WUHU21623XXSP,2013-01-23 05:43:00,
2013-01-22 21:45:00,45.3,36.1,29.86,ESE,112,0.0,3.8,70,0.00,,,0.00,WUHU21623XXSP,2013-01-23 05:45:00,
2013-01-22 21:48:00,45.3,36.1,29.86,SSW,202,0.0,2.2,70,0.00,,,0.00,WUHU21623XXSP,2013-01-23 05:48:00,
2013-01-22 21:50:00,45.3,36.1,29.86,SE,135,0.0,2.2,70,0.00,,,0.00,WUHU21623XXSP,2013-01-23 05:50:00,
2013-01-22 21:53:00,45.3,36.1,29.86,SSE,157,0.0,2.2,70,0.00,,,0.00,WUHU21623XXSP,2013-01-23 05:53:00,
2013-01-22 21:54:00,45.3,36.1,29.86,SSE,157,0.0,2.2,70,0.00,,,0.00,WUHU21623XXSP,2013-01-23 05:54:00,
2013-01-22 21:55:00,45.3,36.1,29.86,SE,135,0.0,2.2,70,0.00,,,0.00,WUHU21623XXSP,2013-01-23 05:55:00,
2013-01-22 21:58:00,45.3,36.1,29.86,SE,135,0.0,2.2,70,0.00,,,0.00,WUHU21623XXSP,2013-01-23 05:58:00,
2013-01-22 21:59:00,45.3,36.1,29.86,SE,135,0.0,2.2,70,0.00,,,0.00,WUHU21623XXSP,2013-01-23 05:59:00,
2013-01-22 22:00:00,45.3,36.1,29.86,SE,135,0.0,1.6,70,0.00,,,0.00,WUHU21623XXSP,2013-01-23 06:00:00,
2013-01-22 22:04:00,45.3,36.1,29.86,SE,135,1.1,1.1,70,0.00,,,0.00,WUHU21623XXSP,2013-01-23 06:04:00,
2013-01-22 22:06:00,45.3,36.1,29.86,SE,135,0.0,1.1,70,0.00,,,0.00,WUHU21623XXSP,2013-01-23 06:06:00,
2013-01-22 22:09:00,45.3,36.1,29.86,SE,135,0.0,1.3,70,0.00,,,0.00,WUHU21623XXSP,2013-01-23 06:09:00,
2013-01-22 22:12:00,45.3,36.1,29.86,East,90,0.0,1.3,70,0.00,,,0.00,WUHU21623XXSP,2013-01-23 06:12:00,
2013-01-22 22:14:00,45.3,36.1,29.86,ESE,112,0.0,1.3,70,0.00,,,0.00,WUHU21623XXSP,2013-01-23 06:14:00,
2013-01-22 22:17:00,45.3,36.1,29.86,ESE,112,1.6,1.8,70,0.00,,,0.00,WUHU21623XXSP,2013-01-23 06:17:00,
2013-01-22 22:19:00,45.3,36.1,29.86,SSE,157,0.7,1.8,70,0.00,,,0.00,WUHU21623XXSP,2013-01-23 06:19:00,
2013-01-22 22:22:00,45.3,36.1,29.86,SSE,157,0.0,1.8,70,0.00,,,0.00,WUHU21623XXSP,2013-01-23 06:22:00,
2013-01-22 22:24:00,45.3,36.1,29.87,SE,135,0.0,1.8,70,0.00,,,0.00,WUHU21623XXSP,2013-01-23 06:24:00,
2013-01-22 22:25:00,45.3,36.1,29.87,SE,135,0.0,1.8,70,0.00,,,0.00,WUHU21623XXSP,2013-01-23 06:25:00,
2013-01-22 22:27:00,45.3,36.1,29.86,ESE,112,0.0,1.3,70,0.00,,,0.00,WUHU21623XXSP,2013-01-23 06:27:00,
2013-01-22 22:29:00,45.3,36.1,29.86,ESE,112,0.0,1.3,70,0.00,,,0.00,WUHU21623XXSP,2013-01-23 06:29:00,
2013-01-22 22:30:00,45.3,36.1,29.86,ESE,112,0.0,1.3,70,0.00,,,0.00,WUHU21623XXSP,2013-01-23 06:30:00,
2013-01-22 22:32:00,45.3,36.1,29.86,ESE,112,0.0,1.3,70,0.00,,,0.00,WUHU21623XXSP,2013-01-23 06:32:00,
2013-01-22 22:34:00,45.1,36.0,29.86,ESE,112,0.0,1.3,70,0.00,,,0.00,WUHU21623XXSP,2013-01-23 06:34:00,
2013-01-22 22:35:00,45.1,36.0,29.86,ESE,112,0.0,1.3,70,0.00,,,0.00,WUHU21623XXSP,2013-01-23 06:35:00,
2013-01-22 22:37:00,45.1,36.0,29.86,ESE,112,0.0,0.0,70,0.00,,,0.00,WUHU21623XXSP,2013-01-23 06:37:00,
2013-01-22 22:39:00,45.1,36.0,29.86,SE,135,1.3,1.3,70,0.00,,,0.00,WUHU21623XXSP,2013-01-23 06:39:00,
2013-01-22 22:40:00,45.1,36.0,29.86,ESE,112,0.0,1.3,70,0.00,,,0.00,WUHU21623XXSP,2013-01-23 06:40:00,
2013-01-22 22:42:00,45.1,36.3,29.86,ESE,112,0.0,1.3,71,0.00,,,0.00,WUHU21623XXSP,2013-01-23 06:42:00,
2013-01-22 22:45:00,45.1,36.3,29.86,ESE,112,0.0,1.3,71,0.00,,,0.00,WUHU21623XXSP,2013-01-23 06:45:00,
2013-01-22 22:48:00,45.1,36.3,29.86,SE,135,0.0,1.3,71,0.00,,,0.00,WUHU21623XXSP,2013-01-23 06:48:00,
2013-01-22 22:50:00,45.1,36.3,29.86,SE,135,0.0,0.0,71,0.00,,,0.00,WUHU21623XXSP,2013-01-23 06:50:00,
2013-01-22 22:53:00,45.1,36.3,29.86,ESE,112,0.0,0.0,71,0.00,,,0.00,WUHU21623XXSP,2013-01-23 06:53:00,
2013-01-22 22:55:00,45.1,36.3,29.86,ESE,112,0.0,0.0,71,0.00,,,0.00,WUHU21623XXSP,2013-01-23 06:55:00,
2013-01-22 22:58:00,45.1,36.3,29.86,ESE,112,0.0,0.0,71,0.00,,,0.00,WUHU21623XXSP,2013-01-23 06:58:00,
2013-01-22 23:00:00,45.1,36.3,29.86,ESE,112,0.0,0.0,71,0.00,,,0.00,WUHU21623XXSP,2013-01-23 07:00:00,
2013-01-22 23:01:00,45.1,36.3,29.86,ESE,112,0.0,0.0,71,0.00,,,0.00,WUHU21623XXSP,2013-01-23 07:01:00,
2013-01-22 23:03:00,45.1,36.3,29.87,ESE,112,0.0,0.0,71,0.00,,,0.00,WUHU21623XXSP,2013-01-23 07:03:00,
2013-01-22 23:05:00,45.1,36.3,29.86,SE,135,0.0,0.0,71,0.00,,,0.00,WUHU21623XXSP,2013-01-23 07:05:00,
2013-01-22 23:06:00,45.1,36.3,29.86,SE,135,0.0,0.0,71,0.00,,,0.00,WUHU21623XXSP,2013-01-23 07:06:00,
2013-01-22 23:08:00,45.1,36.3,29.86,ESE,112,0.9,1.6,71,0.00,,,0.00,WUHU21623XXSP,2013-01-23 07:08:00,
2013-01-22 23:11:00,45.1,36.3,29.86,SE,135,0.0,3.8,71,0.00,,,0.00,WUHU21623XXSP,2013-01-23 07:11:00,
2013-01-22 23:14:00,45.0,36.1,29.86,SE,135,0.0,3.8,71,0.00,,,0.00,WUHU21623XXSP,2013-01-23 07:14:00,
2013-01-22 23:16:00,45.0,36.1,29.86,SE,135,0.0,3.8,71,0.00,,,0.00,WUHU21623XXSP,2013-01-23 07:16:00,
2013-01-22 23:17:00,45.0,36.1,29.86,SE,135,0.0,3.8,71,0.00,,,0.00,WUHU21623XXSP,2013-01-23 07:17:00,
2013-01-22 23:19:00,45.0,36.1,29.86,SE,135,0.0,3.8,71,0.00,,,0.00,WUHU21623XXSP,2013-01-23 07:19:00,
2013-01-22 23:21:00,45.0,36.1,29.86,ESE,112,1.8,2.0,71,0.00,,,0.00,WUHU21623XXSP,2013-01-23 07:21:00,
2013-01-22 23:22:00,45.0,36.1,29.87,SE,135,0.0,2.0,71,0.00,,,0.00,WUHU21623XXSP,2013-01-23 07:22:00,
2013-01-22 23:24:00,45.0,36.1,29.87,SE,135,0.0,1.8,71,0.00,,,0.00,WUHU21623XXSP,2013-01-23 07:24:00,
2013-01-22 23:26:00,45.0,36.1,29.87,ESE,112,1.8,2.9,71,0.00,,,0.00,WUHU21623XXSP,2013-01-23 07:26:00,
2013-01-22 23:27:00,45.0,36.1,29.87,SE,135,0.0,2.9,71,0.00,,,0.00,WUHU21623XXSP,2013-01-23 07:27:00,
2013-01-22 23:28:00,45.0,36.1,29.87,SE,135,0.0,2.9,71,0.00,,,0.00,WUHU21623XXSP,2013-01-23 07:28:00,
2013-01-22 23:29:00,45.0,36.1,29.87,SE,135,0.0,2.9,71,0.00,,,0.00,WUHU21623XXSP,2013-01-23 07:29:00,
2013-01-22 23:31:00,45.0,36.1,29.87,ENE,67,0.0,2.9,71,0.00,,,0.00,WUHU21623XXSP,2013-01-23 07:31:00,
2013-01-22 23:33:00,45.0,36.1,29.87,ENE,67,0.0,2.9,71,0.00,,,0.00,WUHU21623XXSP,2013-01-23 07:33:00,
2013-01-22 23:34:00,45.0,36.1,29.87,SE,135,0.0,2.9,71,0.00,,,0.00,WUHU21623XXSP,2013-01-23 07:34:00,
2013-01-22 23:37:00,45.0,36.1,29.86,ESE,112,0.0,1.6,71,0.00,,,0.00,WUHU21623XXSP,2013-01-23 07:37:00,
2013-01-22 23:38:00,45.0,36.1,29.86,ESE,112,0.0,1.6,71,0.00,,,0.00,WUHU21623XXSP,2013-01-23 07:38:00,
2013-01-22 23:39:00,45.0,36.1,29.86,South,180,0.0,1.6,71,0.00,,,0.00,WUHU21623XXSP,2013-01-23 07:39:00,
2013-01-22 23:42:00,45.0,36.1,29.87,SE,135,0.0,1.8,71,0.00,,,0.00,WUHU21623XXSP,2013-01-23 07:42:00,
2013-01-22 23:43:00,45.0,36.1,29.87,SSE,157,0.0,1.8,71,0.00,,,0.00,WUHU21623XXSP,2013-01-23 07:43:00,
2013-01-22 23:44:00,45.0,36.1,29.87,SSE,157,0.0,2.2,71,0.00,,,0.00,WUHU21623XXSP,2013-01-23 07:44:00,
2013-01-22 23:47:00,45.0,36.1,29.87,East,90,0.0,2.2,71,0.00,,,0.00,WUHU21623XXSP,2013-01-23 07:47:00,
2013-01-22 23:48:00,45.0,36.1,29.87,ESE,112,0.0,2.2,71,0.00,,,0.00,WUHU21623XXSP,2013-01-23 07:48:00,
2013-01-22 23:49:00,45.0,36.1,29.87,SE,135,0.0,2.2,71,0.00,,,0.00,WUHU21623XXSP,2013-01-23 07:49:00,
2013-01-22 23:52:00,45.0,35.9,29.86,SE,135,0.0,2.2,71,0.00,,,0.00,WUHU21623XXSP,2013-01-23 07:52:00,
2013-01-22 23:53:00,44.8,35.9,29.86,SE,135,0.0,2.0,71,0.00,,,0.00,WUHU21623XXSP,2013-01-23 07:53:00,
2013-01-22 23:54:00,44.8,35.9,29.86,SE,135,0.0,2.0,71,0.00,,,0.00,WUHU21623XXSP,2013-01-23 07:54:00,
2013-01-22 23:57:00,44.8,35.9,29.86,SE,135,0.0,2.0,71,0.00,,,0.00,WUHU21623XXSP,2013-01-23 07:57:00,
2013-01-22 23:58:00,44.8,35.9,29.86,SE,135,0.0,2.0,71,0.00,,,0.00,WUHU21623XXSP,2013-01-23 07:58:00,
2013-01-22 23:59:00,44.8,35.9,29.87,SE,135,0.0,0.0,71,0.00,,,0.00,WUHU21623XXSP,2013-01-23 07:59:00,